<?xml version="1.0" encoding="UTF-8" standalone="no" ?>
<gpx xmlns="http://www.topografix.com/GPX/1/1" xmlns:xsi="http://www.w3.org/2001/XMLSchema-instance" xsi:schemaLocation="http://www.topografix.com/GPX/1/1 http://www.topografix.com/GPX/1/1/gpx.xsd" version="1.1" creator="VisuGPX - https://www.visugpx.com">
  <metadata>
    <name>Train des Pignes - jour 2</name>
    <desc><![CDATA[Train des pignes jour2 Copie openrunner HW]]></desc>
  </metadata>
  <trk>
    <name><![CDATA[13780246-Train des Pignes - jour 2]]></name>
    <extensions>
      <line xmlns="http://www.topografix.com/GPX/gpx_style/0/2">
        <color>0000FF</color>
        <width>4</width>
      </line>
    </extensions>
    <trkseg>
      <trkpt lat="43.53967" lon="6.46321">
        <ele>188</ele>
        <time>2021-10-14T07:29:30Z</time>
      </trkpt>
      <trkpt lat="43.53928" lon="6.46305">
        <ele>187</ele>
        <time>2021-10-14T07:29:38Z</time>
      </trkpt>
      <trkpt lat="43.53865" lon="6.4625">
        <ele>185</ele>
        <time>2021-10-14T07:29:52Z</time>
      </trkpt>
      <trkpt lat="43.53796" lon="6.4618">
        <ele>183</ele>
        <time>2021-10-14T07:30:07Z</time>
      </trkpt>
      <trkpt lat="43.53751" lon="6.46148">
        <ele>183</ele>
        <time>2021-10-14T07:30:16Z</time>
      </trkpt>
      <trkpt lat="43.5368" lon="6.46072">
        <ele>180</ele>
        <time>2021-10-14T07:30:32Z</time>
      </trkpt>
      <trkpt lat="43.53646" lon="6.46008">
        <ele>181</ele>
        <time>2021-10-14T07:30:42Z</time>
      </trkpt>
      <trkpt lat="43.53591" lon="6.45895">
        <ele>180</ele>
        <time>2021-10-14T07:31:00Z</time>
      </trkpt>
      <trkpt lat="43.53532" lon="6.45749">
        <ele>180</ele>
        <time>2021-10-14T07:31:21Z</time>
      </trkpt>
      <trkpt lat="43.53504" lon="6.45683">
        <ele>178</ele>
        <time>2021-10-14T07:31:31Z</time>
      </trkpt>
      <trkpt lat="43.53484" lon="6.45605">
        <ele>178</ele>
        <time>2021-10-14T07:31:42Z</time>
      </trkpt>
      <trkpt lat="43.535" lon="6.45559">
        <ele>178</ele>
        <time>2021-10-14T07:31:49Z</time>
      </trkpt>
      <trkpt lat="43.53662" lon="6.45353">
        <ele>181</ele>
        <time>2021-10-14T07:32:28Z</time>
      </trkpt>
      <trkpt lat="43.53696" lon="6.45312">
        <ele>181</ele>
        <time>2021-10-14T07:32:36Z</time>
      </trkpt>
      <trkpt lat="43.53822" lon="6.45155">
        <ele>179</ele>
        <time>2021-10-14T07:33:06Z</time>
      </trkpt>
      <trkpt lat="43.53924" lon="6.44963">
        <ele>179</ele>
        <time>2021-10-14T07:33:37Z</time>
      </trkpt>
      <trkpt lat="43.53952" lon="6.44926">
        <ele>179</ele>
        <time>2021-10-14T07:33:44Z</time>
      </trkpt>
      <trkpt lat="43.54007" lon="6.44844">
        <ele>181</ele>
        <time>2021-10-14T07:33:58Z</time>
      </trkpt>
      <trkpt lat="43.54092" lon="6.44689">
        <ele>181</ele>
        <time>2021-10-14T07:34:24Z</time>
      </trkpt>
      <trkpt lat="43.54145" lon="6.44632">
        <ele>183</ele>
        <time>2021-10-14T07:34:36Z</time>
      </trkpt>
      <trkpt lat="43.54155" lon="6.44618">
        <ele>184</ele>
        <time>2021-10-14T07:34:38Z</time>
      </trkpt>
      <trkpt lat="43.54148" lon="6.44572">
        <ele>184</ele>
        <time>2021-10-14T07:34:44Z</time>
      </trkpt>
      <trkpt lat="43.54155" lon="6.4446">
        <ele>184</ele>
        <time>2021-10-14T07:34:59Z</time>
      </trkpt>
      <trkpt lat="43.54166" lon="6.44273">
        <ele>187</ele>
        <time>2021-10-14T07:35:23Z</time>
      </trkpt>
      <trkpt lat="43.54178" lon="6.44143">
        <ele>188</ele>
        <time>2021-10-14T07:35:40Z</time>
      </trkpt>
      <trkpt lat="43.54256" lon="6.43893">
        <ele>190</ele>
        <time>2021-10-14T07:36:15Z</time>
      </trkpt>
      <trkpt lat="43.54257" lon="6.43836">
        <ele>187.4</ele>
        <time>2021-10-14T07:37:17Z</time>
      </trkpt>
      <trkpt lat="43.5421" lon="6.43807">
        <ele>187</ele>
        <time>2021-10-14T07:37:26Z</time>
      </trkpt>
      <trkpt lat="43.54133" lon="6.43768">
        <ele>187</ele>
        <time>2021-10-14T07:37:40Z</time>
      </trkpt>
      <trkpt lat="43.54108" lon="6.43693">
        <ele>188</ele>
        <time>2021-10-14T07:37:51Z</time>
      </trkpt>
      <trkpt lat="43.54088" lon="6.43604">
        <ele>191</ele>
        <time>2021-10-14T07:38:03Z</time>
      </trkpt>
      <trkpt lat="43.54078" lon="6.43566">
        <ele>193</ele>
        <time>2021-10-14T07:38:08Z</time>
      </trkpt>
      <trkpt lat="43.54022" lon="6.43549">
        <ele>197</ele>
        <time>2021-10-14T07:38:19Z</time>
      </trkpt>
      <trkpt lat="43.5397" lon="6.43558">
        <ele>200</ele>
        <time>2021-10-14T07:38:28Z</time>
      </trkpt>
      <trkpt lat="43.53846" lon="6.43645">
        <ele>202</ele>
        <time>2021-10-14T07:38:53Z</time>
      </trkpt>
      <trkpt lat="43.53722" lon="6.43712">
        <ele>205</ele>
        <time>2021-10-14T07:39:16Z</time>
      </trkpt>
      <trkpt lat="43.53593" lon="6.43785">
        <ele>204</ele>
        <time>2021-10-14T07:39:41Z</time>
      </trkpt>
      <trkpt lat="43.53542" lon="6.43802">
        <ele>205</ele>
        <time>2021-10-14T07:39:51Z</time>
      </trkpt>
      <trkpt lat="43.53499" lon="6.438">
        <ele>208</ele>
        <time>2021-10-14T07:39:58Z</time>
      </trkpt>
      <trkpt lat="43.53455" lon="6.43788">
        <ele>209</ele>
        <time>2021-10-14T07:40:06Z</time>
      </trkpt>
      <trkpt lat="43.53361" lon="6.43719">
        <ele>216</ele>
        <time>2021-10-14T07:40:25Z</time>
      </trkpt>
      <trkpt lat="43.53315" lon="6.437">
        <ele>219</ele>
        <time>2021-10-14T07:40:34Z</time>
      </trkpt>
      <trkpt lat="43.53272" lon="6.43697">
        <ele>218</ele>
        <time>2021-10-14T07:40:41Z</time>
      </trkpt>
      <trkpt lat="43.53198" lon="6.43722">
        <ele>220</ele>
        <time>2021-10-14T07:40:55Z</time>
      </trkpt>
      <trkpt lat="43.53119" lon="6.43753">
        <ele>221</ele>
        <time>2021-10-14T07:41:10Z</time>
      </trkpt>
      <trkpt lat="43.5306" lon="6.43779">
        <ele>223</ele>
        <time>2021-10-14T07:41:21Z</time>
      </trkpt>
      <trkpt lat="43.52997" lon="6.43841">
        <ele>222</ele>
        <time>2021-10-14T07:41:35Z</time>
      </trkpt>
      <trkpt lat="43.52982" lon="6.43839">
        <ele>226</ele>
        <time>2021-10-14T07:41:37Z</time>
      </trkpt>
      <trkpt lat="43.52945" lon="6.43874">
        <ele>230</ele>
        <time>2021-10-14T07:41:46Z</time>
      </trkpt>
      <trkpt lat="43.52901" lon="6.43892">
        <ele>234</ele>
        <time>2021-10-14T07:41:54Z</time>
      </trkpt>
      <trkpt lat="43.52795" lon="6.4389">
        <ele>240</ele>
        <time>2021-10-14T07:42:13Z</time>
      </trkpt>
      <trkpt lat="43.52734" lon="6.43889">
        <ele>241</ele>
        <time>2021-10-14T07:42:24Z</time>
      </trkpt>
      <trkpt lat="43.52712" lon="6.43875">
        <ele>243</ele>
        <time>2021-10-14T07:42:28Z</time>
      </trkpt>
      <trkpt lat="43.52684" lon="6.43824">
        <ele>245</ele>
        <time>2021-10-14T07:42:36Z</time>
      </trkpt>
      <trkpt lat="43.52669" lon="6.43768">
        <ele>245</ele>
        <time>2021-10-14T07:42:44Z</time>
      </trkpt>
      <trkpt lat="43.52686" lon="6.43715">
        <ele>245</ele>
        <time>2021-10-14T07:42:52Z</time>
      </trkpt>
      <trkpt lat="43.52692" lon="6.43653">
        <ele>241</ele>
        <time>2021-10-14T07:43:00Z</time>
      </trkpt>
      <trkpt lat="43.52743" lon="6.43559">
        <ele>238</ele>
        <time>2021-10-14T07:43:15Z</time>
      </trkpt>
      <trkpt lat="43.52763" lon="6.4349">
        <ele>236</ele>
        <time>2021-10-14T07:43:25Z</time>
      </trkpt>
      <trkpt lat="43.52822" lon="6.42997">
        <ele>243</ele>
        <time>2021-10-14T07:44:29Z</time>
      </trkpt>
      <trkpt lat="43.52886" lon="6.42772">
        <ele>247</ele>
        <time>2021-10-14T07:45:00Z</time>
      </trkpt>
      <trkpt lat="43.52891" lon="6.42546">
        <ele>252</ele>
        <time>2021-10-14T07:45:30Z</time>
      </trkpt>
      <trkpt lat="43.52911" lon="6.42021">
        <ele>254</ele>
        <time>2021-10-14T07:46:38Z</time>
      </trkpt>
      <trkpt lat="43.52965" lon="6.41801">
        <ele>252</ele>
        <time>2021-10-14T07:47:08Z</time>
      </trkpt>
      <trkpt lat="43.53246" lon="6.41238">
        <ele>236</ele>
        <time>2021-10-14T07:48:36Z</time>
      </trkpt>
      <trkpt lat="43.53439" lon="6.40884">
        <ele>233</ele>
        <time>2021-10-14T07:49:33Z</time>
      </trkpt>
      <trkpt lat="43.53442" lon="6.40833">
        <ele>233</ele>
        <time>2021-10-14T07:49:40Z</time>
      </trkpt>
      <trkpt lat="43.53368" lon="6.40553">
        <ele>242</ele>
        <time>2021-10-14T07:50:18Z</time>
      </trkpt>
      <trkpt lat="43.53385" lon="6.40499">
        <ele>244</ele>
        <time>2021-10-14T07:50:26Z</time>
      </trkpt>
      <trkpt lat="43.53381" lon="6.40475">
        <ele>245</ele>
        <time>2021-10-14T07:50:30Z</time>
      </trkpt>
      <trkpt lat="43.5336" lon="6.40473">
        <ele>245</ele>
        <time>2021-10-14T07:50:34Z</time>
      </trkpt>
      <trkpt lat="43.53344" lon="6.4047">
        <ele>245</ele>
        <time>2021-10-14T07:50:36Z</time>
      </trkpt>
      <trkpt lat="43.53336" lon="6.40439">
        <ele>247</ele>
        <time>2021-10-14T07:50:41Z</time>
      </trkpt>
      <trkpt lat="43.53311" lon="6.40429">
        <ele>251</ele>
        <time>2021-10-14T07:50:46Z</time>
      </trkpt>
      <trkpt lat="43.53239" lon="6.40441">
        <ele>257</ele>
        <time>2021-10-14T07:50:59Z</time>
      </trkpt>
      <trkpt lat="43.53182" lon="6.40462">
        <ele>256</ele>
        <time>2021-10-14T07:51:09Z</time>
      </trkpt>
      <trkpt lat="43.53138" lon="6.40529">
        <ele>247</ele>
        <time>2021-10-14T07:51:21Z</time>
      </trkpt>
      <trkpt lat="43.53068" lon="6.4059">
        <ele>239</ele>
        <time>2021-10-14T07:51:36Z</time>
      </trkpt>
      <trkpt lat="43.53025" lon="6.40634">
        <ele>238</ele>
        <time>2021-10-14T07:51:45Z</time>
      </trkpt>
      <trkpt lat="43.52911" lon="6.40658">
        <ele>243</ele>
        <time>2021-10-14T07:52:06Z</time>
      </trkpt>
      <trkpt lat="43.52872" lon="6.40665">
        <ele>243</ele>
        <time>2021-10-14T07:52:13Z</time>
      </trkpt>
      <trkpt lat="43.52757" lon="6.40664">
        <ele>244</ele>
        <time>2021-10-14T07:52:33Z</time>
      </trkpt>
      <trkpt lat="43.52657" lon="6.40686">
        <ele>242</ele>
        <time>2021-10-14T07:52:51Z</time>
      </trkpt>
      <trkpt lat="43.52567" lon="6.4068">
        <ele>241</ele>
        <time>2021-10-14T07:53:07Z</time>
      </trkpt>
      <trkpt lat="43.52495" lon="6.40673">
        <ele>239</ele>
        <time>2021-10-14T07:53:20Z</time>
      </trkpt>
      <trkpt lat="43.52449" lon="6.4069">
        <ele>239</ele>
        <time>2021-10-14T07:53:29Z</time>
      </trkpt>
      <trkpt lat="43.52354" lon="6.40762">
        <ele>238</ele>
        <time>2021-10-14T07:53:48Z</time>
      </trkpt>
      <trkpt lat="43.52194" lon="6.40835">
        <ele>234</ele>
        <time>2021-10-14T07:54:18Z</time>
      </trkpt>
      <trkpt lat="43.52144" lon="6.40837">
        <ele>232</ele>
        <time>2021-10-14T07:54:27Z</time>
      </trkpt>
      <trkpt lat="43.52089" lon="6.40809">
        <ele>231</ele>
        <time>2021-10-14T07:54:37Z</time>
      </trkpt>
      <trkpt lat="43.51991" lon="6.40727">
        <ele>236</ele>
        <time>2021-10-14T07:54:58Z</time>
      </trkpt>
      <trkpt lat="43.51944" lon="6.40699">
        <ele>237</ele>
        <time>2021-10-14T07:55:07Z</time>
      </trkpt>
      <trkpt lat="43.51788" lon="6.40686">
        <ele>232</ele>
        <time>2021-10-14T07:55:35Z</time>
      </trkpt>
      <trkpt lat="43.51676" lon="6.40672">
        <ele>237</ele>
        <time>2021-10-14T07:55:55Z</time>
      </trkpt>
      <trkpt lat="43.51617" lon="6.40633">
        <ele>235</ele>
        <time>2021-10-14T07:56:07Z</time>
      </trkpt>
      <trkpt lat="43.51597" lon="6.40592">
        <ele>235</ele>
        <time>2021-10-14T07:56:13Z</time>
      </trkpt>
      <trkpt lat="43.51573" lon="6.40523">
        <ele>230</ele>
        <time>2021-10-14T07:56:23Z</time>
      </trkpt>
      <trkpt lat="43.51563" lon="6.40431">
        <ele>230</ele>
        <time>2021-10-14T07:56:35Z</time>
      </trkpt>
      <trkpt lat="43.51523" lon="6.40315">
        <ele>234</ele>
        <time>2021-10-14T07:56:52Z</time>
      </trkpt>
      <trkpt lat="43.51514" lon="6.40261">
        <ele>243</ele>
        <time>2021-10-14T07:56:59Z</time>
      </trkpt>
      <trkpt lat="43.51555" lon="6.40124">
        <ele>241</ele>
        <time>2021-10-14T07:57:19Z</time>
      </trkpt>
      <trkpt lat="43.51595" lon="6.40043">
        <ele>230</ele>
        <time>2021-10-14T07:57:32Z</time>
      </trkpt>
      <trkpt lat="43.51613" lon="6.39977">
        <ele>223</ele>
        <time>2021-10-14T07:57:41Z</time>
      </trkpt>
      <trkpt lat="43.51611" lon="6.39902">
        <ele>223</ele>
        <time>2021-10-14T07:57:51Z</time>
      </trkpt>
      <trkpt lat="43.51564" lon="6.39756">
        <ele>241</ele>
        <time>2021-10-14T07:58:11Z</time>
      </trkpt>
      <trkpt lat="43.51589" lon="6.39574">
        <ele>236</ele>
        <time>2021-10-14T07:58:36Z</time>
      </trkpt>
      <trkpt lat="43.51619" lon="6.39502">
        <ele>227</ele>
        <time>2021-10-14T07:58:47Z</time>
      </trkpt>
      <trkpt lat="43.51697" lon="6.39405">
        <ele>218</ele>
        <time>2021-10-14T07:59:05Z</time>
      </trkpt>
      <trkpt lat="43.51725" lon="6.3935">
        <ele>214</ele>
        <time>2021-10-14T07:59:14Z</time>
      </trkpt>
      <trkpt lat="43.51738" lon="6.39282">
        <ele>211</ele>
        <time>2021-10-14T07:59:23Z</time>
      </trkpt>
      <trkpt lat="43.51735" lon="6.39231">
        <ele>211</ele>
        <time>2021-10-14T07:59:30Z</time>
      </trkpt>
      <trkpt lat="43.51708" lon="6.39156">
        <ele>212</ele>
        <time>2021-10-14T07:59:41Z</time>
      </trkpt>
      <trkpt lat="43.51667" lon="6.39109">
        <ele>214</ele>
        <time>2021-10-14T07:59:50Z</time>
      </trkpt>
      <trkpt lat="43.51522" lon="6.39056">
        <ele>205</ele>
        <time>2021-10-14T08:00:17Z</time>
      </trkpt>
      <trkpt lat="43.51465" lon="6.39017">
        <ele>201</ele>
        <time>2021-10-14T08:00:28Z</time>
      </trkpt>
      <trkpt lat="43.51427" lon="6.38952">
        <ele>203</ele>
        <time>2021-10-14T08:00:39Z</time>
      </trkpt>
      <trkpt lat="43.51412" lon="6.38863">
        <ele>203</ele>
        <time>2021-10-14T08:00:51Z</time>
      </trkpt>
      <trkpt lat="43.51423" lon="6.38799">
        <ele>201</ele>
        <time>2021-10-14T08:01:00Z</time>
      </trkpt>
      <trkpt lat="43.51494" lon="6.38686">
        <ele>203</ele>
        <time>2021-10-14T08:01:19Z</time>
      </trkpt>
      <trkpt lat="43.5145" lon="6.38743">
        <ele>202</ele>
        <time>2021-10-14T08:01:34Z</time>
      </trkpt>
      <trkpt lat="43.51514" lon="6.3865">
        <ele>204</ele>
        <time>2021-10-14T08:01:50Z</time>
      </trkpt>
      <trkpt lat="43.51531" lon="6.38568">
        <ele>205</ele>
        <time>2021-10-14T08:02:01Z</time>
      </trkpt>
      <trkpt lat="43.51526" lon="6.38511">
        <ele>208</ele>
        <time>2021-10-14T08:02:09Z</time>
      </trkpt>
      <trkpt lat="43.51471" lon="6.3825">
        <ele>214</ele>
        <time>2021-10-14T08:02:44Z</time>
      </trkpt>
      <trkpt lat="43.51488" lon="6.38137">
        <ele>214</ele>
        <time>2021-10-14T08:02:59Z</time>
      </trkpt>
      <trkpt lat="43.51512" lon="6.38054">
        <ele>217</ele>
        <time>2021-10-14T08:03:11Z</time>
      </trkpt>
      <trkpt lat="43.5151" lon="6.37973">
        <ele>215</ele>
        <time>2021-10-14T08:03:21Z</time>
      </trkpt>
      <trkpt lat="43.51504" lon="6.3794">
        <ele>212</ele>
        <time>2021-10-14T08:03:26Z</time>
      </trkpt>
      <trkpt lat="43.51463" lon="6.37863">
        <ele>208</ele>
        <time>2021-10-14T08:03:38Z</time>
      </trkpt>
      <trkpt lat="43.51437" lon="6.37842">
        <ele>210</ele>
        <time>2021-10-14T08:03:44Z</time>
      </trkpt>
      <trkpt lat="43.51371" lon="6.37827">
        <ele>218</ele>
        <time>2021-10-14T08:03:56Z</time>
      </trkpt>
      <trkpt lat="43.51312" lon="6.37845">
        <ele>221</ele>
        <time>2021-10-14T08:04:06Z</time>
      </trkpt>
      <trkpt lat="43.51238" lon="6.37883">
        <ele>223</ele>
        <time>2021-10-14T08:04:21Z</time>
      </trkpt>
      <trkpt lat="43.51209" lon="6.37922">
        <ele>222</ele>
        <time>2021-10-14T08:04:28Z</time>
      </trkpt>
      <trkpt lat="43.51174" lon="6.38016">
        <ele>219</ele>
        <time>2021-10-14T08:04:41Z</time>
      </trkpt>
      <trkpt lat="43.51147" lon="6.38064">
        <ele>221</ele>
        <time>2021-10-14T08:04:49Z</time>
      </trkpt>
      <trkpt lat="43.51101" lon="6.38103">
        <ele>227</ele>
        <time>2021-10-14T08:04:59Z</time>
      </trkpt>
      <trkpt lat="43.51024" lon="6.3813">
        <ele>233</ele>
        <time>2021-10-14T08:05:13Z</time>
      </trkpt>
      <trkpt lat="43.50958" lon="6.38099">
        <ele>235</ele>
        <time>2021-10-14T08:05:26Z</time>
      </trkpt>
      <trkpt lat="43.50834" lon="6.37997">
        <ele>234</ele>
        <time>2021-10-14T08:05:52Z</time>
      </trkpt>
      <trkpt lat="43.50793" lon="6.3799">
        <ele>237</ele>
        <time>2021-10-14T08:05:59Z</time>
      </trkpt>
      <trkpt lat="43.50739" lon="6.38005">
        <ele>241</ele>
        <time>2021-10-14T08:06:09Z</time>
      </trkpt>
      <trkpt lat="43.50708" lon="6.38031">
        <ele>245</ele>
        <time>2021-10-14T08:06:15Z</time>
      </trkpt>
      <trkpt lat="43.50661" lon="6.38117">
        <ele>245</ele>
        <time>2021-10-14T08:06:29Z</time>
      </trkpt>
      <trkpt lat="43.50591" lon="6.38195">
        <ele>247</ele>
        <time>2021-10-14T08:06:45Z</time>
      </trkpt>
      <trkpt lat="43.50535" lon="6.38212">
        <ele>247</ele>
        <time>2021-10-14T08:06:56Z</time>
      </trkpt>
      <trkpt lat="43.50437" lon="6.3819">
        <ele>252</ele>
        <time>2021-10-14T08:07:13Z</time>
      </trkpt>
      <trkpt lat="43.50376" lon="6.38161">
        <ele>253</ele>
        <time>2021-10-14T08:07:25Z</time>
      </trkpt>
      <trkpt lat="43.5034" lon="6.38118">
        <ele>256</ele>
        <time>2021-10-14T08:07:33Z</time>
      </trkpt>
      <trkpt lat="43.50324" lon="6.38073">
        <ele>257</ele>
        <time>2021-10-14T08:07:40Z</time>
      </trkpt>
      <trkpt lat="43.50311" lon="6.3797">
        <ele>258</ele>
        <time>2021-10-14T08:07:53Z</time>
      </trkpt>
      <trkpt lat="43.5025" lon="6.37811">
        <ele>261</ele>
        <time>2021-10-14T08:08:17Z</time>
      </trkpt>
      <trkpt lat="43.50216" lon="6.377">
        <ele>264</ele>
        <time>2021-10-14T08:08:32Z</time>
      </trkpt>
      <trkpt lat="43.50186" lon="6.37635">
        <ele>263</ele>
        <time>2021-10-14T08:08:42Z</time>
      </trkpt>
      <trkpt lat="43.50119" lon="6.37529">
        <ele>272</ele>
        <time>2021-10-14T08:09:00Z</time>
      </trkpt>
      <trkpt lat="43.50105" lon="6.37469">
        <ele>278</ele>
        <time>2021-10-14T08:09:09Z</time>
      </trkpt>
      <trkpt lat="43.50108" lon="6.37386">
        <ele>282</ele>
        <time>2021-10-14T08:09:19Z</time>
      </trkpt>
      <trkpt lat="43.50127" lon="6.37328">
        <ele>281</ele>
        <time>2021-10-14T08:09:28Z</time>
      </trkpt>
      <trkpt lat="43.50153" lon="6.37292">
        <ele>276</ele>
        <time>2021-10-14T08:09:34Z</time>
      </trkpt>
      <trkpt lat="43.50239" lon="6.37226">
        <ele>270</ele>
        <time>2021-10-14T08:09:52Z</time>
      </trkpt>
      <trkpt lat="43.50271" lon="6.37178">
        <ele>267</ele>
        <time>2021-10-14T08:10:00Z</time>
      </trkpt>
      <trkpt lat="43.50302" lon="6.37016">
        <ele>265</ele>
        <time>2021-10-14T08:10:22Z</time>
      </trkpt>
      <trkpt lat="43.50316" lon="6.36966">
        <ele>264</ele>
        <time>2021-10-14T08:10:29Z</time>
      </trkpt>
      <trkpt lat="43.50409" lon="6.36828">
        <ele>259</ele>
        <time>2021-10-14T08:10:53Z</time>
      </trkpt>
      <trkpt lat="43.50442" lon="6.36745">
        <ele>253</ele>
        <time>2021-10-14T08:11:06Z</time>
      </trkpt>
      <trkpt lat="43.50447" lon="6.36683">
        <ele>254</ele>
        <time>2021-10-14T08:11:14Z</time>
      </trkpt>
      <trkpt lat="43.50438" lon="6.36624">
        <ele>254</ele>
        <time>2021-10-14T08:11:22Z</time>
      </trkpt>
      <trkpt lat="43.50398" lon="6.36553">
        <ele>253</ele>
        <time>2021-10-14T08:11:33Z</time>
      </trkpt>
      <trkpt lat="43.50328" lon="6.36494">
        <ele>251</ele>
        <time>2021-10-14T08:11:48Z</time>
      </trkpt>
      <trkpt lat="43.50291" lon="6.36434">
        <ele>248</ele>
        <time>2021-10-14T08:11:58Z</time>
      </trkpt>
      <trkpt lat="43.50252" lon="6.36275">
        <ele>246</ele>
        <time>2021-10-14T08:12:20Z</time>
      </trkpt>
      <trkpt lat="43.50225" lon="6.36218">
        <ele>245</ele>
        <time>2021-10-14T08:12:28Z</time>
      </trkpt>
      <trkpt lat="43.5019" lon="6.36184">
        <ele>245</ele>
        <time>2021-10-14T08:12:36Z</time>
      </trkpt>
      <trkpt lat="43.50133" lon="6.36163">
        <ele>244</ele>
        <time>2021-10-14T08:12:47Z</time>
      </trkpt>
      <trkpt lat="43.50052" lon="6.36159">
        <ele>241</ele>
        <time>2021-10-14T08:13:01Z</time>
      </trkpt>
      <trkpt lat="43.49995" lon="6.36123">
        <ele>242</ele>
        <time>2021-10-14T08:13:12Z</time>
      </trkpt>
      <trkpt lat="43.49959" lon="6.36063">
        <ele>245</ele>
        <time>2021-10-14T08:13:22Z</time>
      </trkpt>
      <trkpt lat="43.49917" lon="6.35915">
        <ele>240</ele>
        <time>2021-10-14T08:13:43Z</time>
      </trkpt>
      <trkpt lat="43.49884" lon="6.35799">
        <ele>242</ele>
        <time>2021-10-14T08:13:59Z</time>
      </trkpt>
      <trkpt lat="43.49849" lon="6.35501">
        <ele>239</ele>
        <time>2021-10-14T08:14:38Z</time>
      </trkpt>
      <trkpt lat="43.49852" lon="6.35344">
        <ele>239</ele>
        <time>2021-10-14T08:14:59Z</time>
      </trkpt>
      <trkpt lat="43.49846" lon="6.35301">
        <ele>238</ele>
        <time>2021-10-14T08:15:04Z</time>
      </trkpt>
      <trkpt lat="43.49879" lon="6.35228">
        <ele>239</ele>
        <time>2021-10-14T08:15:15Z</time>
      </trkpt>
      <trkpt lat="43.49884" lon="6.35166">
        <ele>239</ele>
        <time>2021-10-14T08:15:24Z</time>
      </trkpt>
      <trkpt lat="43.49889" lon="6.35069">
        <ele>238</ele>
        <time>2021-10-14T08:15:36Z</time>
      </trkpt>
      <trkpt lat="43.49871" lon="6.34828">
        <ele>240</ele>
        <time>2021-10-14T08:16:07Z</time>
      </trkpt>
      <trkpt lat="43.49872" lon="6.34714">
        <ele>245</ele>
        <time>2021-10-14T08:16:22Z</time>
      </trkpt>
      <trkpt lat="43.49894" lon="6.34619">
        <ele>248</ele>
        <time>2021-10-14T08:16:35Z</time>
      </trkpt>
      <trkpt lat="43.49942" lon="6.34519">
        <ele>248</ele>
        <time>2021-10-14T08:16:51Z</time>
      </trkpt>
      <trkpt lat="43.50033" lon="6.34404">
        <ele>247</ele>
        <time>2021-10-14T08:17:12Z</time>
      </trkpt>
      <trkpt lat="43.50092" lon="6.34262">
        <ele>247</ele>
        <time>2021-10-14T08:17:34Z</time>
      </trkpt>
      <trkpt lat="43.5011" lon="6.33895">
        <ele>252</ele>
        <time>2021-10-14T08:18:21Z</time>
      </trkpt>
      <trkpt lat="43.50112" lon="6.33797">
        <ele>253</ele>
        <time>2021-10-14T08:18:34Z</time>
      </trkpt>
      <trkpt lat="43.50126" lon="6.33679">
        <ele>251</ele>
        <time>2021-10-14T08:18:50Z</time>
      </trkpt>
      <trkpt lat="43.50163" lon="6.33558">
        <ele>249</ele>
        <time>2021-10-14T08:19:07Z</time>
      </trkpt>
      <trkpt lat="43.50197" lon="6.33416">
        <ele>250</ele>
        <time>2021-10-14T08:19:26Z</time>
      </trkpt>
      <trkpt lat="43.50166" lon="6.33188">
        <ele>249</ele>
        <time>2021-10-14T08:19:56Z</time>
      </trkpt>
      <trkpt lat="43.50169" lon="6.33112">
        <ele>248</ele>
        <time>2021-10-14T08:20:06Z</time>
      </trkpt>
      <trkpt lat="43.50213" lon="6.32849">
        <ele>251</ele>
        <time>2021-10-14T08:20:41Z</time>
      </trkpt>
      <trkpt lat="43.50225" lon="6.32616">
        <ele>254</ele>
        <time>2021-10-14T08:21:11Z</time>
      </trkpt>
      <trkpt lat="43.50245" lon="6.32539">
        <ele>255</ele>
        <time>2021-10-14T08:21:21Z</time>
      </trkpt>
      <trkpt lat="43.50347" lon="6.32304">
        <ele>251</ele>
        <time>2021-10-14T08:21:57Z</time>
      </trkpt>
      <trkpt lat="43.5037" lon="6.32213">
        <ele>252</ele>
        <time>2021-10-14T08:22:09Z</time>
      </trkpt>
      <trkpt lat="43.50359" lon="6.32076">
        <ele>256</ele>
        <time>2021-10-14T08:22:27Z</time>
      </trkpt>
      <trkpt lat="43.50364" lon="6.3198">
        <ele>254</ele>
        <time>2021-10-14T08:22:40Z</time>
      </trkpt>
      <trkpt lat="43.50382" lon="6.31916">
        <ele>256</ele>
        <time>2021-10-14T08:22:48Z</time>
      </trkpt>
      <trkpt lat="43.50414" lon="6.31844">
        <ele>256</ele>
        <time>2021-10-14T08:22:59Z</time>
      </trkpt>
      <trkpt lat="43.50513" lon="6.31715">
        <ele>258</ele>
        <time>2021-10-14T08:23:24Z</time>
      </trkpt>
      <trkpt lat="43.50575" lon="6.31612">
        <ele>263</ele>
        <time>2021-10-14T08:23:41Z</time>
      </trkpt>
      <trkpt lat="43.5062" lon="6.31493">
        <ele>261</ele>
        <time>2021-10-14T08:23:58Z</time>
      </trkpt>
      <trkpt lat="43.50636" lon="6.31379">
        <ele>259</ele>
        <time>2021-10-14T08:24:13Z</time>
      </trkpt>
      <trkpt lat="43.50671" lon="6.31275">
        <ele>259</ele>
        <time>2021-10-14T08:24:28Z</time>
      </trkpt>
      <trkpt lat="43.50756" lon="6.31149">
        <ele>258</ele>
        <time>2021-10-14T08:24:50Z</time>
      </trkpt>
      <trkpt lat="43.50825" lon="6.30972">
        <ele>259</ele>
        <time>2021-10-14T08:25:16Z</time>
      </trkpt>
      <trkpt lat="43.50866" lon="6.30895">
        <ele>260</ele>
        <time>2021-10-14T08:25:32Z</time>
      </trkpt>
      <trkpt lat="43.50875" lon="6.30858">
        <ele>259</ele>
        <time>2021-10-14T08:25:37Z</time>
      </trkpt>
      <trkpt lat="43.5098" lon="6.30596">
        <ele>262</ele>
        <time>2021-10-14T08:26:16Z</time>
      </trkpt>
      <trkpt lat="43.51145" lon="6.30367">
        <ele>258</ele>
        <time>2021-10-14T08:26:57Z</time>
      </trkpt>
      <trkpt lat="43.51227" lon="6.30283">
        <ele>258</ele>
        <time>2021-10-14T08:27:16Z</time>
      </trkpt>
      <trkpt lat="43.51305" lon="6.30178">
        <ele>258</ele>
        <time>2021-10-14T08:27:35Z</time>
      </trkpt>
      <trkpt lat="43.51387" lon="6.30005">
        <ele>253</ele>
        <time>2021-10-14T08:28:02Z</time>
      </trkpt>
      <trkpt lat="43.51441" lon="6.29927">
        <ele>253</ele>
        <time>2021-10-14T08:28:16Z</time>
      </trkpt>
      <trkpt lat="43.5153" lon="6.29886">
        <ele>260</ele>
        <time>2021-10-14T08:28:32Z</time>
      </trkpt>
      <trkpt lat="43.51572" lon="6.29851">
        <ele>256</ele>
        <time>2021-10-14T08:28:41Z</time>
      </trkpt>
      <trkpt lat="43.51619" lon="6.29756">
        <ele>255</ele>
        <time>2021-10-14T08:28:56Z</time>
      </trkpt>
      <trkpt lat="43.51668" lon="6.29523">
        <ele>252</ele>
        <time>2021-10-14T08:29:27Z</time>
      </trkpt>
      <trkpt lat="43.5174" lon="6.29345">
        <ele>250</ele>
        <time>2021-10-14T08:29:54Z</time>
      </trkpt>
      <trkpt lat="43.51834" lon="6.29106">
        <ele>247</ele>
        <time>2021-10-14T08:30:29Z</time>
      </trkpt>
      <trkpt lat="43.51909" lon="6.28969">
        <ele>244</ele>
        <time>2021-10-14T08:30:51Z</time>
      </trkpt>
      <trkpt lat="43.51923" lon="6.289">
        <ele>240</ele>
        <time>2021-10-14T08:31:00Z</time>
      </trkpt>
      <trkpt lat="43.51917" lon="6.28793">
        <ele>238</ele>
        <time>2021-10-14T08:31:14Z</time>
      </trkpt>
      <trkpt lat="43.51881" lon="6.287">
        <ele>238</ele>
        <time>2021-10-14T08:31:28Z</time>
      </trkpt>
      <trkpt lat="43.51829" lon="6.28564">
        <ele>251</ele>
        <time>2021-10-14T08:31:48Z</time>
      </trkpt>
      <trkpt lat="43.51823" lon="6.28497">
        <ele>254</ele>
        <time>2021-10-14T08:31:57Z</time>
      </trkpt>
      <trkpt lat="43.51833" lon="6.28446">
        <ele>255</ele>
        <time>2021-10-14T08:32:03Z</time>
      </trkpt>
      <trkpt lat="43.51861" lon="6.2839">
        <ele>254</ele>
        <time>2021-10-14T08:32:12Z</time>
      </trkpt>
      <trkpt lat="43.51897" lon="6.28352">
        <ele>251</ele>
        <time>2021-10-14T08:32:20Z</time>
      </trkpt>
      <trkpt lat="43.5207" lon="6.28264">
        <ele>250</ele>
        <time>2021-10-14T08:32:53Z</time>
      </trkpt>
      <trkpt lat="43.52208" lon="6.28181">
        <ele>253</ele>
        <time>2021-10-14T08:33:20Z</time>
      </trkpt>
      <trkpt lat="43.52268" lon="6.2813">
        <ele>249</ele>
        <time>2021-10-14T08:33:33Z</time>
      </trkpt>
      <trkpt lat="43.52329" lon="6.28045">
        <ele>246</ele>
        <time>2021-10-14T08:33:48Z</time>
      </trkpt>
      <trkpt lat="43.52391" lon="6.27909">
        <ele>248</ele>
        <time>2021-10-14T08:34:09Z</time>
      </trkpt>
      <trkpt lat="43.5255" lon="6.27396">
        <ele>251</ele>
        <time>2021-10-14T08:35:21Z</time>
      </trkpt>
      <trkpt lat="43.52575" lon="6.27286">
        <ele>256</ele>
        <time>2021-10-14T08:35:36Z</time>
      </trkpt>
      <trkpt lat="43.5257" lon="6.27241">
        <ele>259</ele>
        <time>2021-10-14T08:35:42Z</time>
      </trkpt>
      <trkpt lat="43.52537" lon="6.27106">
        <ele>263</ele>
        <time>2021-10-14T08:36:00Z</time>
      </trkpt>
      <trkpt lat="43.52542" lon="6.27058">
        <ele>261</ele>
        <time>2021-10-14T08:36:06Z</time>
      </trkpt>
      <trkpt lat="43.52566" lon="6.26997">
        <ele>257</ele>
        <time>2021-10-14T08:36:15Z</time>
      </trkpt>
      <trkpt lat="43.52623" lon="6.26931">
        <ele>255</ele>
        <time>2021-10-14T08:36:29Z</time>
      </trkpt>
      <trkpt lat="43.52754" lon="6.26847">
        <ele>250</ele>
        <time>2021-10-14T08:36:54Z</time>
      </trkpt>
      <trkpt lat="43.52795" lon="6.26795">
        <ele>249</ele>
        <time>2021-10-14T08:37:04Z</time>
      </trkpt>
      <trkpt lat="43.52826" lon="6.26731">
        <ele>248</ele>
        <time>2021-10-14T08:37:14Z</time>
      </trkpt>
      <trkpt lat="43.52889" lon="6.26571">
        <ele>241</ele>
        <time>2021-10-14T08:37:38Z</time>
      </trkpt>
      <trkpt lat="43.52933" lon="6.2653">
        <ele>242</ele>
        <time>2021-10-14T08:37:47Z</time>
      </trkpt>
      <trkpt lat="43.52968" lon="6.26516">
        <ele>240</ele>
        <time>2021-10-14T08:37:54Z</time>
      </trkpt>
      <trkpt lat="43.53045" lon="6.26519">
        <ele>235</ele>
        <time>2021-10-14T08:38:08Z</time>
      </trkpt>
      <trkpt lat="43.53091" lon="6.26514">
        <ele>231</ele>
        <time>2021-10-14T08:38:16Z</time>
      </trkpt>
      <trkpt lat="43.53148" lon="6.26471">
        <ele>231</ele>
        <time>2021-10-14T08:38:27Z</time>
      </trkpt>
      <trkpt lat="43.53185" lon="6.26402">
        <ele>233</ele>
        <time>2021-10-14T08:38:39Z</time>
      </trkpt>
      <trkpt lat="43.53194" lon="6.26315">
        <ele>233</ele>
        <time>2021-10-14T08:38:50Z</time>
      </trkpt>
      <trkpt lat="43.53179" lon="6.25982">
        <ele>230</ele>
        <time>2021-10-14T08:39:33Z</time>
      </trkpt>
      <trkpt lat="43.53154" lon="6.25814">
        <ele>229</ele>
        <time>2021-10-14T08:39:55Z</time>
      </trkpt>
      <trkpt lat="43.53151" lon="6.25735">
        <ele>228</ele>
        <time>2021-10-14T08:40:05Z</time>
      </trkpt>
      <trkpt lat="43.53173" lon="6.2564">
        <ele>226</ele>
        <time>2021-10-14T08:40:18Z</time>
      </trkpt>
      <trkpt lat="43.53243" lon="6.2544">
        <ele>228</ele>
        <time>2021-10-14T08:40:47Z</time>
      </trkpt>
      <trkpt lat="43.53272" lon="6.25394">
        <ele>228</ele>
        <time>2021-10-14T08:40:55Z</time>
      </trkpt>
      <trkpt lat="43.53318" lon="6.25362">
        <ele>227</ele>
        <time>2021-10-14T08:41:04Z</time>
      </trkpt>
      <trkpt lat="43.53397" lon="6.2536">
        <ele>224</ele>
        <time>2021-10-14T08:41:18Z</time>
      </trkpt>
      <trkpt lat="43.53462" lon="6.2535">
        <ele>223</ele>
        <time>2021-10-14T08:41:30Z</time>
      </trkpt>
      <trkpt lat="43.53583" lon="6.25298">
        <ele>227</ele>
        <time>2021-10-14T08:41:53Z</time>
      </trkpt>
      <trkpt lat="43.53613" lon="6.25303">
        <ele>225</ele>
        <time>2021-10-14T08:41:58Z</time>
      </trkpt>
      <trkpt lat="43.53662" lon="6.25332">
        <ele>225</ele>
        <time>2021-10-14T08:42:07Z</time>
      </trkpt>
      <trkpt lat="43.53788" lon="6.25556">
        <ele>232</ele>
        <time>2021-10-14T08:42:44Z</time>
      </trkpt>
      <trkpt lat="43.53899" lon="6.25645">
        <ele>228</ele>
        <time>2021-10-14T08:43:07Z</time>
      </trkpt>
      <trkpt lat="43.53989" lon="6.25723">
        <ele>224</ele>
        <time>2021-10-14T08:43:26Z</time>
      </trkpt>
      <trkpt lat="43.54022" lon="6.2573">
        <ele>221</ele>
        <time>2021-10-14T08:43:32Z</time>
      </trkpt>
      <trkpt lat="43.54178" lon="6.25712">
        <ele>214</ele>
        <time>2021-10-14T08:44:00Z</time>
      </trkpt>
      <trkpt lat="43.54186" lon="6.25707">
        <ele>212</ele>
        <time>2021-10-14T08:44:04Z</time>
      </trkpt>
      <trkpt lat="43.54151" lon="6.25715">
        <ele>215</ele>
        <time>2021-10-14T08:44:11Z</time>
      </trkpt>
      <trkpt lat="43.54321" lon="6.25685">
        <ele>210</ele>
        <time>2021-10-14T08:44:41Z</time>
      </trkpt>
      <trkpt lat="43.5439" lon="6.25639">
        <ele>212</ele>
        <time>2021-10-14T08:44:55Z</time>
      </trkpt>
      <trkpt lat="43.54443" lon="6.25576">
        <ele>210</ele>
        <time>2021-10-14T08:45:07Z</time>
      </trkpt>
      <trkpt lat="43.54503" lon="6.25453">
        <ele>206</ele>
        <time>2021-10-14T08:45:26Z</time>
      </trkpt>
      <trkpt lat="43.54536" lon="6.2534">
        <ele>208</ele>
        <time>2021-10-14T08:45:42Z</time>
      </trkpt>
      <trkpt lat="43.54581" lon="6.25093">
        <ele>204</ele>
        <time>2021-10-14T08:46:15Z</time>
      </trkpt>
      <trkpt lat="43.54614" lon="6.2503">
        <ele>200</ele>
        <time>2021-10-14T08:46:25Z</time>
      </trkpt>
      <trkpt lat="43.54702" lon="6.24975">
        <ele>203</ele>
        <time>2021-10-14T08:46:42Z</time>
      </trkpt>
      <trkpt lat="43.54769" lon="6.24921">
        <ele>204</ele>
        <time>2021-10-14T08:46:56Z</time>
      </trkpt>
      <trkpt lat="43.54831" lon="6.24826">
        <ele>208</ele>
        <time>2021-10-14T08:47:13Z</time>
      </trkpt>
      <trkpt lat="43.549" lon="6.24675">
        <ele>208</ele>
        <time>2021-10-14T08:47:36Z</time>
      </trkpt>
      <trkpt lat="43.54942" lon="6.2458">
        <ele>205</ele>
        <time>2021-10-14T08:47:50Z</time>
      </trkpt>
      <trkpt lat="43.55023" lon="6.24506">
        <ele>205</ele>
        <time>2021-10-14T08:48:08Z</time>
      </trkpt>
      <trkpt lat="43.55203" lon="6.24416">
        <ele>201</ele>
        <time>2021-10-14T08:48:42Z</time>
      </trkpt>
      <trkpt lat="43.55261" lon="6.24386">
        <ele>202</ele>
        <time>2021-10-14T08:48:53Z</time>
      </trkpt>
      <trkpt lat="43.55402" lon="6.2431">
        <ele>205</ele>
        <time>2021-10-14T08:49:20Z</time>
      </trkpt>
      <trkpt lat="43.55465" lon="6.24247">
        <ele>210</ele>
        <time>2021-10-14T08:49:34Z</time>
      </trkpt>
      <trkpt lat="43.55553" lon="6.24083">
        <ele>217</ele>
        <time>2021-10-14T08:50:00Z</time>
      </trkpt>
      <trkpt lat="43.55653" lon="6.23871">
        <ele>218</ele>
        <time>2021-10-14T08:50:33Z</time>
      </trkpt>
      <trkpt lat="43.55729" lon="6.23746">
        <ele>221</ele>
        <time>2021-10-14T08:50:54Z</time>
      </trkpt>
      <trkpt lat="43.55842" lon="6.23612">
        <ele>221</ele>
        <time>2021-10-14T08:51:20Z</time>
      </trkpt>
      <trkpt lat="43.55895" lon="6.23577">
        <ele>220</ele>
        <time>2021-10-14T08:51:31Z</time>
      </trkpt>
      <trkpt lat="43.55954" lon="6.23568">
        <ele>222</ele>
        <time>2021-10-14T08:51:41Z</time>
      </trkpt>
      <trkpt lat="43.56013" lon="6.23586">
        <ele>225</ele>
        <time>2021-10-14T08:51:52Z</time>
      </trkpt>
      <trkpt lat="43.56062" lon="6.23624">
        <ele>229</ele>
        <time>2021-10-14T08:52:02Z</time>
      </trkpt>
      <trkpt lat="43.56107" lon="6.23698">
        <ele>237</ele>
        <time>2021-10-14T08:52:15Z</time>
      </trkpt>
      <trkpt lat="43.5613" lon="6.23859">
        <ele>238</ele>
        <time>2021-10-14T08:52:36Z</time>
      </trkpt>
      <trkpt lat="43.56057" lon="6.24233">
        <ele>247</ele>
        <time>2021-10-14T08:53:26Z</time>
      </trkpt>
      <trkpt lat="43.56042" lon="6.24269">
        <ele>247</ele>
        <time>2021-10-14T08:53:31Z</time>
      </trkpt>
      <trkpt lat="43.56046" lon="6.2429">
        <ele>248</ele>
        <time>2021-10-14T08:53:34Z</time>
      </trkpt>
      <trkpt lat="43.56078" lon="6.24349">
        <ele>247</ele>
        <time>2021-10-14T08:53:44Z</time>
      </trkpt>
      <trkpt lat="43.56162" lon="6.24469">
        <ele>246</ele>
        <time>2021-10-14T08:54:06Z</time>
      </trkpt>
      <trkpt lat="43.56199" lon="6.24563">
        <ele>247</ele>
        <time>2021-10-14T08:54:19Z</time>
      </trkpt>
      <trkpt lat="43.56205" lon="6.24728">
        <ele>251</ele>
        <time>2021-10-14T08:54:41Z</time>
      </trkpt>
      <trkpt lat="43.56228" lon="6.24896">
        <ele>255</ele>
        <time>2021-10-14T08:55:03Z</time>
      </trkpt>
      <trkpt lat="43.56266" lon="6.2495">
        <ele>257</ele>
        <time>2021-10-14T08:55:13Z</time>
      </trkpt>
      <trkpt lat="43.56362" lon="6.25023">
        <ele>257</ele>
        <time>2021-10-14T08:55:32Z</time>
      </trkpt>
      <trkpt lat="43.56414" lon="6.25028">
        <ele>258</ele>
        <time>2021-10-14T08:55:42Z</time>
      </trkpt>
      <trkpt lat="43.56433" lon="6.25041">
        <ele>257</ele>
        <time>2021-10-14T08:55:46Z</time>
      </trkpt>
      <trkpt lat="43.56448" lon="6.25058">
        <ele>256</ele>
        <time>2021-10-14T08:55:49Z</time>
      </trkpt>
      <trkpt lat="43.5647" lon="6.25034">
        <ele>258</ele>
        <time>2021-10-14T08:55:54Z</time>
      </trkpt>
      <trkpt lat="43.56532" lon="6.24969">
        <ele>265</ele>
        <time>2021-10-14T08:56:08Z</time>
      </trkpt>
      <trkpt lat="43.56623" lon="6.24838">
        <ele>272</ele>
        <time>2021-10-14T08:56:31Z</time>
      </trkpt>
      <trkpt lat="43.56793" lon="6.2459">
        <ele>279</ele>
        <time>2021-10-14T08:57:16Z</time>
      </trkpt>
      <trkpt lat="43.56867" lon="6.24388">
        <ele>283</ele>
        <time>2021-10-14T08:57:45Z</time>
      </trkpt>
      <trkpt lat="43.56909" lon="6.24321">
        <ele>285</ele>
        <time>2021-10-14T08:57:56Z</time>
      </trkpt>
      <trkpt lat="43.56965" lon="6.24271">
        <ele>287</ele>
        <time>2021-10-14T08:58:08Z</time>
      </trkpt>
      <trkpt lat="43.57253" lon="6.24122">
        <ele>295</ele>
        <time>2021-10-14T08:59:03Z</time>
      </trkpt>
      <trkpt lat="43.57347" lon="6.24071">
        <ele>299</ele>
        <time>2021-10-14T08:59:21Z</time>
      </trkpt>
      <trkpt lat="43.57407" lon="6.24002">
        <ele>303</ele>
        <time>2021-10-14T08:59:35Z</time>
      </trkpt>
      <trkpt lat="43.57449" lon="6.23889">
        <ele>306</ele>
        <time>2021-10-14T08:59:51Z</time>
      </trkpt>
      <trkpt lat="43.57457" lon="6.2377">
        <ele>302</ele>
        <time>2021-10-14T09:00:07Z</time>
      </trkpt>
      <trkpt lat="43.57449" lon="6.23702">
        <ele>297</ele>
        <time>2021-10-14T09:00:16Z</time>
      </trkpt>
      <trkpt lat="43.57429" lon="6.23644">
        <ele>295</ele>
        <time>2021-10-14T09:00:24Z</time>
      </trkpt>
      <trkpt lat="43.57351" lon="6.23536">
        <ele>297</ele>
        <time>2021-10-14T09:00:44Z</time>
      </trkpt>
      <trkpt lat="43.57296" lon="6.23448">
        <ele>296</ele>
        <time>2021-10-14T09:00:59Z</time>
      </trkpt>
      <trkpt lat="43.57277" lon="6.23353">
        <ele>296</ele>
        <time>2021-10-14T09:01:12Z</time>
      </trkpt>
      <trkpt lat="43.57301" lon="6.2296">
        <ele>299</ele>
        <time>2021-10-14T09:02:02Z</time>
      </trkpt>
      <trkpt lat="43.57317" lon="6.22895">
        <ele>299</ele>
        <time>2021-10-14T09:02:11Z</time>
      </trkpt>
      <trkpt lat="43.57369" lon="6.22781">
        <ele>300</ele>
        <time>2021-10-14T09:02:29Z</time>
      </trkpt>
      <trkpt lat="43.57376" lon="6.22711">
        <ele>298</ele>
        <time>2021-10-14T09:02:38Z</time>
      </trkpt>
      <trkpt lat="43.57358" lon="6.22619">
        <ele>293</ele>
        <time>2021-10-14T09:02:50Z</time>
      </trkpt>
      <trkpt lat="43.57362" lon="6.22571">
        <ele>295</ele>
        <time>2021-10-14T09:02:56Z</time>
      </trkpt>
      <trkpt lat="43.57354" lon="6.22524">
        <ele>292</ele>
        <time>2021-10-14T09:03:03Z</time>
      </trkpt>
      <trkpt lat="43.57354" lon="6.22442">
        <ele>293</ele>
        <time>2021-10-14T09:03:13Z</time>
      </trkpt>
      <trkpt lat="43.57382" lon="6.22367">
        <ele>299</ele>
        <time>2021-10-14T09:03:24Z</time>
      </trkpt>
      <trkpt lat="43.57377" lon="6.22295">
        <ele>298</ele>
        <time>2021-10-14T09:03:34Z</time>
      </trkpt>
      <trkpt lat="43.57393" lon="6.22185">
        <ele>303</ele>
        <time>2021-10-14T09:03:48Z</time>
      </trkpt>
      <trkpt lat="43.57393" lon="6.22122">
        <ele>304</ele>
        <time>2021-10-14T09:03:56Z</time>
      </trkpt>
      <trkpt lat="43.57366" lon="6.22045">
        <ele>303</ele>
        <time>2021-10-14T09:04:08Z</time>
      </trkpt>
      <trkpt lat="43.57344" lon="6.21961">
        <ele>304</ele>
        <time>2021-10-14T09:04:19Z</time>
      </trkpt>
      <trkpt lat="43.57339" lon="6.21861">
        <ele>309</ele>
        <time>2021-10-14T09:04:32Z</time>
      </trkpt>
      <trkpt lat="43.57368" lon="6.21719">
        <ele>317</ele>
        <time>2021-10-14T09:04:51Z</time>
      </trkpt>
      <trkpt lat="43.57399" lon="6.21642">
        <ele>321</ele>
        <time>2021-10-14T09:05:03Z</time>
      </trkpt>
      <trkpt lat="43.57442" lon="6.21589">
        <ele>320</ele>
        <time>2021-10-14T09:05:13Z</time>
      </trkpt>
      <trkpt lat="43.57528" lon="6.21525">
        <ele>313</ele>
        <time>2021-10-14T09:05:30Z</time>
      </trkpt>
      <trkpt lat="43.57567" lon="6.21467">
        <ele>312</ele>
        <time>2021-10-14T09:05:41Z</time>
      </trkpt>
      <trkpt lat="43.57586" lon="6.21397">
        <ele>317</ele>
        <time>2021-10-14T09:05:50Z</time>
      </trkpt>
      <trkpt lat="43.57587" lon="6.21269">
        <ele>324</ele>
        <time>2021-10-14T09:06:07Z</time>
      </trkpt>
      <trkpt lat="43.57567" lon="6.2118">
        <ele>325</ele>
        <time>2021-10-14T09:06:19Z</time>
      </trkpt>
      <trkpt lat="43.57536" lon="6.2113">
        <ele>326</ele>
        <time>2021-10-14T09:06:27Z</time>
      </trkpt>
      <trkpt lat="43.57482" lon="6.21096">
        <ele>328</ele>
        <time>2021-10-14T09:06:38Z</time>
      </trkpt>
      <trkpt lat="43.57427" lon="6.21077">
        <ele>329</ele>
        <time>2021-10-14T09:06:48Z</time>
      </trkpt>
      <trkpt lat="43.57375" lon="6.21025">
        <ele>324</ele>
        <time>2021-10-14T09:07:00Z</time>
      </trkpt>
      <trkpt lat="43.57341" lon="6.20953">
        <ele>323</ele>
        <time>2021-10-14T09:07:11Z</time>
      </trkpt>
      <trkpt lat="43.57334" lon="6.20897">
        <ele>324</ele>
        <time>2021-10-14T09:07:18Z</time>
      </trkpt>
      <trkpt lat="43.57328" lon="6.20695">
        <ele>325</ele>
        <time>2021-10-14T09:07:44Z</time>
      </trkpt>
      <trkpt lat="43.57286" lon="6.20465">
        <ele>330</ele>
        <time>2021-10-14T09:08:15Z</time>
      </trkpt>
      <trkpt lat="43.5729" lon="6.20137">
        <ele>335</ele>
        <time>2021-10-14T09:08:57Z</time>
      </trkpt>
      <trkpt lat="43.57302" lon="6.19845">
        <ele>331</ele>
        <time>2021-10-14T09:09:35Z</time>
      </trkpt>
      <trkpt lat="43.57352" lon="6.19645">
        <ele>336</ele>
        <time>2021-10-14T09:10:02Z</time>
      </trkpt>
      <trkpt lat="43.57364" lon="6.19554">
        <ele>335</ele>
        <time>2021-10-14T09:10:14Z</time>
      </trkpt>
      <trkpt lat="43.57336" lon="6.19494">
        <ele>330</ele>
        <time>2021-10-14T09:10:24Z</time>
      </trkpt>
      <trkpt lat="43.57318" lon="6.19456">
        <ele>331</ele>
        <time>2021-10-14T09:10:29Z</time>
      </trkpt>
      <trkpt lat="43.57255" lon="6.19382">
        <ele>339</ele>
        <time>2021-10-14T09:10:44Z</time>
      </trkpt>
      <trkpt lat="43.57184" lon="6.19351">
        <ele>342</ele>
        <time>2021-10-14T09:10:58Z</time>
      </trkpt>
      <trkpt lat="43.57101" lon="6.19315">
        <ele>341</ele>
        <time>2021-10-14T09:11:13Z</time>
      </trkpt>
      <trkpt lat="43.57008" lon="6.19277">
        <ele>341</ele>
        <time>2021-10-14T09:11:30Z</time>
      </trkpt>
      <trkpt lat="43.56942" lon="6.1924">
        <ele>345</ele>
        <time>2021-10-14T09:11:43Z</time>
      </trkpt>
      <trkpt lat="43.56876" lon="6.19187">
        <ele>352</ele>
        <time>2021-10-14T09:11:57Z</time>
      </trkpt>
      <trkpt lat="43.56838" lon="6.19167">
        <ele>351</ele>
        <time>2021-10-14T09:12:04Z</time>
      </trkpt>
      <trkpt lat="43.56729" lon="6.1906">
        <ele>350</ele>
        <time>2021-10-14T09:12:28Z</time>
      </trkpt>
      <trkpt lat="43.56608" lon="6.18866">
        <ele>356</ele>
        <time>2021-10-14T09:13:01Z</time>
      </trkpt>
      <trkpt lat="43.5658" lon="6.18771">
        <ele>356</ele>
        <time>2021-10-14T09:13:14Z</time>
      </trkpt>
      <trkpt lat="43.5655" lon="6.18663">
        <ele>356</ele>
        <time>2021-10-14T09:13:29Z</time>
      </trkpt>
      <trkpt lat="43.56531" lon="6.18584">
        <ele>360</ele>
        <time>2021-10-14T09:13:40Z</time>
      </trkpt>
      <trkpt lat="43.56528" lon="6.18612">
        <ele>358</ele>
        <time>2021-10-14T09:13:44Z</time>
      </trkpt>
      <trkpt lat="43.56501" lon="6.18592">
        <ele>359</ele>
        <time>2021-10-14T09:13:50Z</time>
      </trkpt>
      <trkpt lat="43.56464" lon="6.18589">
        <ele>353</ele>
        <time>2021-10-14T09:13:57Z</time>
      </trkpt>
      <trkpt lat="43.5646" lon="6.1864">
        <ele>347</ele>
        <time>2021-10-14T09:14:05Z</time>
      </trkpt>
      <trkpt lat="43.56464" lon="6.18583">
        <ele>353</ele>
        <time>2021-10-14T09:14:12Z</time>
      </trkpt>
      <trkpt lat="43.56493" lon="6.18584">
        <ele>359</ele>
        <time>2021-10-14T09:14:18Z</time>
      </trkpt>
      <trkpt lat="43.56501" lon="6.18579">
        <ele>360</ele>
        <time>2021-10-14T09:14:19Z</time>
      </trkpt>
      <trkpt lat="43.56519" lon="6.18601">
        <ele>359</ele>
        <time>2021-10-14T09:14:23Z</time>
      </trkpt>
      <trkpt lat="43.56522" lon="6.18591">
        <ele>360</ele>
        <time>2021-10-14T09:14:25Z</time>
      </trkpt>
      <trkpt lat="43.56506" lon="6.18515">
        <ele>365</ele>
        <time>2021-10-14T09:14:35Z</time>
      </trkpt>
      <trkpt lat="43.56506" lon="6.18451">
        <ele>366</ele>
        <time>2021-10-14T09:14:43Z</time>
      </trkpt>
      <trkpt lat="43.56527" lon="6.18386">
        <ele>367</ele>
        <time>2021-10-14T09:14:53Z</time>
      </trkpt>
      <trkpt lat="43.56574" lon="6.18327">
        <ele>366</ele>
        <time>2021-10-14T09:15:04Z</time>
      </trkpt>
      <trkpt lat="43.56671" lon="6.18273">
        <ele>369</ele>
        <time>2021-10-14T09:15:23Z</time>
      </trkpt>
      <trkpt lat="43.56694" lon="6.18262">
        <ele>370</ele>
        <time>2021-10-14T09:15:27Z</time>
      </trkpt>
      <trkpt lat="43.56754" lon="6.18205">
        <ele>369</ele>
        <time>2021-10-14T09:15:40Z</time>
      </trkpt>
      <trkpt lat="43.56796" lon="6.18178">
        <ele>369</ele>
        <time>2021-10-14T09:15:49Z</time>
      </trkpt>
      <trkpt lat="43.56805" lon="6.18191">
        <ele>370</ele>
        <time>2021-10-14T09:15:51Z</time>
      </trkpt>
      <trkpt lat="43.56806" lon="6.18201">
        <ele>371</ele>
        <time>2021-10-14T09:15:53Z</time>
      </trkpt>
      <trkpt lat="43.56803" lon="6.18188">
        <ele>370</ele>
        <time>2021-10-14T09:15:55Z</time>
      </trkpt>
      <trkpt lat="43.56822" lon="6.18172">
        <ele>369</ele>
        <time>2021-10-14T09:15:59Z</time>
      </trkpt>
      <trkpt lat="43.56852" lon="6.18173">
        <ele>371</ele>
        <time>2021-10-14T09:16:05Z</time>
      </trkpt>
      <trkpt lat="43.56891" lon="6.18131">
        <ele>373</ele>
        <time>2021-10-14T09:16:14Z</time>
      </trkpt>
      <trkpt lat="43.56922" lon="6.18057">
        <ele>373</ele>
        <time>2021-10-14T09:16:25Z</time>
      </trkpt>
      <trkpt lat="43.56925" lon="6.17931">
        <ele>371</ele>
        <time>2021-10-14T09:16:41Z</time>
      </trkpt>
      <trkpt lat="43.5691" lon="6.1785">
        <ele>368</ele>
        <time>2021-10-14T09:16:52Z</time>
      </trkpt>
      <trkpt lat="43.56847" lon="6.1767">
        <ele>373</ele>
        <time>2021-10-14T09:17:18Z</time>
      </trkpt>
      <trkpt lat="43.56846" lon="6.17617">
        <ele>377</ele>
        <time>2021-10-14T09:17:25Z</time>
      </trkpt>
      <trkpt lat="43.56879" lon="6.17403">
        <ele>378</ele>
        <time>2021-10-14T09:17:53Z</time>
      </trkpt>
      <trkpt lat="43.56895" lon="6.17247">
        <ele>377</ele>
        <time>2021-10-14T09:18:14Z</time>
      </trkpt>
      <trkpt lat="43.56862" lon="6.17102">
        <ele>380</ele>
        <time>2021-10-14T09:18:33Z</time>
      </trkpt>
      <trkpt lat="43.56813" lon="6.1693">
        <ele>381</ele>
        <time>2021-10-14T09:18:57Z</time>
      </trkpt>
      <trkpt lat="43.56798" lon="6.16805">
        <ele>379</ele>
        <time>2021-10-14T09:19:14Z</time>
      </trkpt>
      <trkpt lat="43.56813" lon="6.16721">
        <ele>378</ele>
        <time>2021-10-14T09:19:25Z</time>
      </trkpt>
      <trkpt lat="43.56887" lon="6.16605">
        <ele>383</ele>
        <time>2021-10-14T09:19:45Z</time>
      </trkpt>
      <trkpt lat="43.57038" lon="6.16384">
        <ele>386</ele>
        <time>2021-10-14T09:20:24Z</time>
      </trkpt>
      <trkpt lat="43.57058" lon="6.16314">
        <ele>389</ele>
        <time>2021-10-14T09:20:34Z</time>
      </trkpt>
      <trkpt lat="43.57051" lon="6.16338">
        <ele>388</ele>
        <time>2021-10-14T09:20:37Z</time>
      </trkpt>
      <trkpt lat="43.5706" lon="6.16308">
        <ele>389</ele>
        <time>2021-10-14T09:20:42Z</time>
      </trkpt>
      <trkpt lat="43.57054" lon="6.16328">
        <ele>388</ele>
        <time>2021-10-14T09:20:46Z</time>
      </trkpt>
      <trkpt lat="43.57063" lon="6.16278">
        <ele>390</ele>
        <time>2021-10-14T09:20:53Z</time>
      </trkpt>
      <trkpt lat="43.57057" lon="6.16169">
        <ele>394</ele>
        <time>2021-10-14T09:21:08Z</time>
      </trkpt>
      <trkpt lat="43.56977" lon="6.15982">
        <ele>397</ele>
        <time>2021-10-14T09:21:36Z</time>
      </trkpt>
      <trkpt lat="43.56937" lon="6.15925">
        <ele>399</ele>
        <time>2021-10-14T09:21:46Z</time>
      </trkpt>
      <trkpt lat="43.56797" lon="6.15778">
        <ele>402</ele>
        <time>2021-10-14T09:22:17Z</time>
      </trkpt>
      <trkpt lat="43.56765" lon="6.15685">
        <ele>400</ele>
        <time>2021-10-14T09:22:31Z</time>
      </trkpt>
      <trkpt lat="43.5676" lon="6.15426">
        <ele>400</ele>
        <time>2021-10-14T09:23:04Z</time>
      </trkpt>
      <trkpt lat="43.56764" lon="6.15291">
        <ele>402</ele>
        <time>2021-10-14T09:23:22Z</time>
      </trkpt>
      <trkpt lat="43.56766" lon="6.14968">
        <ele>406</ele>
        <time>2021-10-14T09:24:03Z</time>
      </trkpt>
      <trkpt lat="43.56765" lon="6.14597">
        <ele>408</ele>
        <time>2021-10-14T09:24:51Z</time>
      </trkpt>
      <trkpt lat="43.56748" lon="6.14469">
        <ele>406</ele>
        <time>2021-10-14T09:25:08Z</time>
      </trkpt>
      <trkpt lat="43.5676" lon="6.1435">
        <ele>400</ele>
        <time>2021-10-14T09:25:23Z</time>
      </trkpt>
      <trkpt lat="43.56855" lon="6.14114">
        <ele>399</ele>
        <time>2021-10-14T09:25:58Z</time>
      </trkpt>
      <trkpt lat="43.56895" lon="6.1394">
        <ele>406</ele>
        <time>2021-10-14T09:26:22Z</time>
      </trkpt>
      <trkpt lat="43.56924" lon="6.13753">
        <ele>409</ele>
        <time>2021-10-14T09:26:47Z</time>
      </trkpt>
      <trkpt lat="43.5692" lon="6.13594">
        <ele>413</ele>
        <time>2021-10-14T09:27:07Z</time>
      </trkpt>
      <trkpt lat="43.56909" lon="6.13533">
        <ele>414</ele>
        <time>2021-10-14T09:27:15Z</time>
      </trkpt>
      <trkpt lat="43.56891" lon="6.13479">
        <ele>414</ele>
        <time>2021-10-14T09:27:23Z</time>
      </trkpt>
      <trkpt lat="43.56856" lon="6.13398">
        <ele>412</ele>
        <time>2021-10-14T09:27:35Z</time>
      </trkpt>
      <trkpt lat="43.56839" lon="6.13412">
        <ele>412</ele>
        <time>2021-10-14T09:27:40Z</time>
      </trkpt>
      <trkpt lat="43.56815" lon="6.13413">
        <ele>412</ele>
        <time>2021-10-14T09:27:44Z</time>
      </trkpt>
      <trkpt lat="43.56751" lon="6.13407">
        <ele>411</ele>
        <time>2021-10-14T09:27:56Z</time>
      </trkpt>
      <trkpt lat="43.56509" lon="6.13477">
        <ele>411</ele>
        <time>2021-10-14T09:28:40Z</time>
      </trkpt>
      <trkpt lat="43.56458" lon="6.13465">
        <ele>411</ele>
        <time>2021-10-14T09:28:49Z</time>
      </trkpt>
      <trkpt lat="43.56408" lon="6.13419">
        <ele>412</ele>
        <time>2021-10-14T09:29:00Z</time>
      </trkpt>
      <trkpt lat="43.5636" lon="6.1324">
        <ele>411</ele>
        <time>2021-10-14T09:29:24Z</time>
      </trkpt>
      <trkpt lat="43.56279" lon="6.13054">
        <ele>409</ele>
        <time>2021-10-14T09:29:52Z</time>
      </trkpt>
      <trkpt lat="43.56223" lon="6.12879">
        <ele>405</ele>
        <time>2021-10-14T09:30:17Z</time>
      </trkpt>
      <trkpt lat="43.5617" lon="6.12797">
        <ele>405</ele>
        <time>2021-10-14T09:30:31Z</time>
      </trkpt>
      <trkpt lat="43.56122" lon="6.12755">
        <ele>408</ele>
        <time>2021-10-14T09:30:41Z</time>
      </trkpt>
      <trkpt lat="43.55969" lon="6.12682">
        <ele>407</ele>
        <time>2021-10-14T09:31:10Z</time>
      </trkpt>
      <trkpt lat="43.5585" lon="6.12553">
        <ele>402</ele>
        <time>2021-10-14T09:31:37Z</time>
      </trkpt>
      <trkpt lat="43.55817" lon="6.12496">
        <ele>406</ele>
        <time>2021-10-14T09:31:47Z</time>
      </trkpt>
      <trkpt lat="43.55771" lon="6.12295">
        <ele>409</ele>
        <time>2021-10-14T09:32:14Z</time>
      </trkpt>
      <trkpt lat="43.55727" lon="6.12169">
        <ele>410</ele>
        <time>2021-10-14T09:32:32Z</time>
      </trkpt>
      <trkpt lat="43.55718" lon="6.12099">
        <ele>410</ele>
        <time>2021-10-14T09:32:41Z</time>
      </trkpt>
      <trkpt lat="43.55718" lon="6.11967">
        <ele>410</ele>
        <time>2021-10-14T09:32:58Z</time>
      </trkpt>
      <trkpt lat="43.55705" lon="6.11912">
        <ele>409</ele>
        <time>2021-10-14T09:33:06Z</time>
      </trkpt>
      <trkpt lat="43.5558" lon="6.11649">
        <ele>410</ele>
        <time>2021-10-14T09:33:46Z</time>
      </trkpt>
      <trkpt lat="43.55558" lon="6.11545">
        <ele>410</ele>
        <time>2021-10-14T09:34:00Z</time>
      </trkpt>
      <trkpt lat="43.55575" lon="6.11413">
        <ele>413</ele>
        <time>2021-10-14T09:34:18Z</time>
      </trkpt>
      <trkpt lat="43.55643" lon="6.1129">
        <ele>406</ele>
        <time>2021-10-14T09:34:38Z</time>
      </trkpt>
      <trkpt lat="43.55666" lon="6.11241">
        <ele>402</ele>
        <time>2021-10-14T09:34:45Z</time>
      </trkpt>
      <trkpt lat="43.55674" lon="6.11165">
        <ele>399</ele>
        <time>2021-10-14T09:34:55Z</time>
      </trkpt>
      <trkpt lat="43.55641" lon="6.11065">
        <ele>401</ele>
        <time>2021-10-14T09:35:10Z</time>
      </trkpt>
      <trkpt lat="43.55534" lon="6.10844">
        <ele>403</ele>
        <time>2021-10-14T09:35:44Z</time>
      </trkpt>
      <trkpt lat="43.55512" lon="6.1074">
        <ele>406</ele>
        <time>2021-10-14T09:35:58Z</time>
      </trkpt>
      <trkpt lat="43.55517" lon="6.10638">
        <ele>406</ele>
        <time>2021-10-14T09:36:11Z</time>
      </trkpt>
      <trkpt lat="43.5559" lon="6.09992">
        <ele>418</ele>
        <time>2021-10-14T09:37:35Z</time>
      </trkpt>
      <trkpt lat="43.55618" lon="6.09786">
        <ele>416</ele>
        <time>2021-10-14T09:38:02Z</time>
      </trkpt>
      <trkpt lat="43.55738" lon="6.09395">
        <ele>417</ele>
        <time>2021-10-14T09:38:57Z</time>
      </trkpt>
      <trkpt lat="43.56093" lon="6.08726">
        <ele>399</ele>
        <time>2021-10-14T09:40:44Z</time>
      </trkpt>
      <trkpt lat="43.56369" lon="6.08193">
        <ele>385</ele>
        <time>2021-10-14T09:42:09Z</time>
      </trkpt>
      <trkpt lat="43.56435" lon="6.08032">
        <ele>382</ele>
        <time>2021-10-14T09:42:33Z</time>
      </trkpt>
      <trkpt lat="43.56496" lon="6.07953">
        <ele>379</ele>
        <time>2021-10-14T09:42:47Z</time>
      </trkpt>
      <trkpt lat="43.56521" lon="6.07884">
        <ele>379</ele>
        <time>2021-10-14T09:42:57Z</time>
      </trkpt>
      <trkpt lat="43.56598" lon="6.07731">
        <ele>376</ele>
        <time>2021-10-14T09:43:22Z</time>
      </trkpt>
      <trkpt lat="43.56624" lon="6.07651">
        <ele>377</ele>
        <time>2021-10-14T09:43:33Z</time>
      </trkpt>
      <trkpt lat="43.56657" lon="6.07488">
        <ele>374</ele>
        <time>2021-10-14T09:43:55Z</time>
      </trkpt>
      <trkpt lat="43.5675" lon="6.07228">
        <ele>369</ele>
        <time>2021-10-14T09:44:32Z</time>
      </trkpt>
      <trkpt lat="43.56773" lon="6.07105">
        <ele>368</ele>
        <time>2021-10-14T09:44:49Z</time>
      </trkpt>
      <trkpt lat="43.56778" lon="6.06822">
        <ele>365</ele>
        <time>2021-10-14T09:45:25Z</time>
      </trkpt>
      <trkpt lat="43.56784" lon="6.06619">
        <ele>365</ele>
        <time>2021-10-14T09:45:51Z</time>
      </trkpt>
      <trkpt lat="43.56852" lon="6.06455">
        <ele>366</ele>
        <time>2021-10-14T09:46:16Z</time>
      </trkpt>
      <trkpt lat="43.56928" lon="6.06219">
        <ele>370</ele>
        <time>2021-10-14T09:46:49Z</time>
      </trkpt>
      <trkpt lat="43.56963" lon="6.06042">
        <ele>369</ele>
        <time>2021-10-14T09:47:13Z</time>
      </trkpt>
      <trkpt lat="43.56965" lon="6.05801">
        <ele>363</ele>
        <time>2021-10-14T09:47:44Z</time>
      </trkpt>
      <trkpt lat="43.56957" lon="6.05456">
        <ele>360</ele>
        <time>2021-10-14T09:48:28Z</time>
      </trkpt>
      <trkpt lat="43.56935" lon="6.05324">
        <ele>360</ele>
        <time>2021-10-14T09:48:46Z</time>
      </trkpt>
      <trkpt lat="43.56818" lon="6.05092">
        <ele>352</ele>
        <time>2021-10-14T09:49:23Z</time>
      </trkpt>
      <trkpt lat="43.5678" lon="6.05003">
        <ele>350</ele>
        <time>2021-10-14T09:49:36Z</time>
      </trkpt>
      <trkpt lat="43.56701" lon="6.04771">
        <ele>345</ele>
        <time>2021-10-14T09:50:09Z</time>
      </trkpt>
      <trkpt lat="43.56686" lon="6.04768">
        <ele>345</ele>
        <time>2021-10-14T09:50:12Z</time>
      </trkpt>
      <trkpt lat="43.56559" lon="6.04383">
        <ele>339</ele>
        <time>2021-10-14T09:51:06Z</time>
      </trkpt>
      <trkpt lat="43.56401" lon="6.03929">
        <ele>337</ele>
        <time>2021-10-14T09:52:11Z</time>
      </trkpt>
      <trkpt lat="43.56232" lon="6.03528">
        <ele>335</ele>
        <time>2021-10-14T09:53:11Z</time>
      </trkpt>
      <trkpt lat="43.56127" lon="6.03272">
        <ele>334</ele>
        <time>2021-10-14T09:53:49Z</time>
      </trkpt>
      <trkpt lat="43.56039" lon="6.02939">
        <ele>330</ele>
        <time>2021-10-14T09:54:35Z</time>
      </trkpt>
      <trkpt lat="43.5604" lon="6.0288">
        <ele>330</ele>
        <time>2021-10-14T09:54:43Z</time>
      </trkpt>
      <trkpt lat="43.56051" lon="6.02834">
        <ele>330</ele>
        <time>2021-10-14T09:54:49Z</time>
      </trkpt>
      <trkpt lat="43.56032" lon="6.02817">
        <ele>331</ele>
        <time>2021-10-14T09:54:53Z</time>
      </trkpt>
      <trkpt lat="43.56039" lon="6.02558">
        <ele>334</ele>
        <time>2021-10-14T09:55:27Z</time>
      </trkpt>
      <trkpt lat="43.56031" lon="6.02455">
        <ele>334</ele>
        <time>2021-10-14T09:55:40Z</time>
      </trkpt>
      <trkpt lat="43.56004" lon="6.02376">
        <ele>334</ele>
        <time>2021-10-14T09:55:52Z</time>
      </trkpt>
      <trkpt lat="43.55893" lon="6.02118">
        <ele>339</ele>
        <time>2021-10-14T09:56:30Z</time>
      </trkpt>
      <trkpt lat="43.55889" lon="6.02018">
        <ele>333</ele>
        <time>2021-10-14T09:56:43Z</time>
      </trkpt>
      <trkpt lat="43.55947" lon="6.01795">
        <ele>335</ele>
        <time>2021-10-14T09:57:14Z</time>
      </trkpt>
      <trkpt lat="43.55953" lon="6.01688">
        <ele>337</ele>
        <time>2021-10-14T09:57:28Z</time>
      </trkpt>
      <trkpt lat="43.55954" lon="6.01697">
        <ele>337</ele>
        <time>2021-10-14T09:57:55Z</time>
      </trkpt>
      <trkpt lat="43.55952" lon="6.01776">
        <ele>336</ele>
        <time>2021-10-14T09:58:05Z</time>
      </trkpt>
      <trkpt lat="43.55946" lon="6.01815">
        <ele>334</ele>
        <time>2021-10-14T09:58:11Z</time>
      </trkpt>
      <trkpt lat="43.5597" lon="6.01822">
        <ele>332</ele>
        <time>2021-10-14T09:58:15Z</time>
      </trkpt>
      <trkpt lat="43.5598" lon="6.01814">
        <ele>332</ele>
        <time>2021-10-14T09:58:17Z</time>
      </trkpt>
      <trkpt lat="43.56007" lon="6.01679">
        <ele>335</ele>
        <time>2021-10-14T09:58:35Z</time>
      </trkpt>
      <trkpt lat="43.55993" lon="6.01585">
        <ele>336</ele>
        <time>2021-10-14T09:58:48Z</time>
      </trkpt>
      <trkpt lat="43.55971" lon="6.01514">
        <ele>337</ele>
        <time>2021-10-14T09:58:58Z</time>
      </trkpt>
      <trkpt lat="43.55944" lon="6.01464">
        <ele>336</ele>
        <time>2021-10-14T09:59:06Z</time>
      </trkpt>
      <trkpt lat="43.55877" lon="6.01414">
        <ele>330</ele>
        <time>2021-10-14T09:59:19Z</time>
      </trkpt>
      <trkpt lat="43.55846" lon="6.01377">
        <ele>327</ele>
        <time>2021-10-14T09:59:27Z</time>
      </trkpt>
      <trkpt lat="43.55833" lon="6.01324">
        <ele>325</ele>
        <time>2021-10-14T09:59:34Z</time>
      </trkpt>
      <trkpt lat="43.55811" lon="6.01279">
        <ele>320</ele>
        <time>2021-10-14T09:59:41Z</time>
      </trkpt>
      <trkpt lat="43.55823" lon="6.01266">
        <ele>320</ele>
        <time>2021-10-14T09:59:44Z</time>
      </trkpt>
      <trkpt lat="43.55858" lon="6.01281">
        <ele>322</ele>
        <time>2021-10-14T09:59:51Z</time>
      </trkpt>
      <trkpt lat="43.55899" lon="6.01268">
        <ele>320</ele>
        <time>2021-10-14T09:59:58Z</time>
      </trkpt>
      <trkpt lat="43.55965" lon="6.01188">
        <ele>316</ele>
        <time>2021-10-14T10:00:14Z</time>
      </trkpt>
      <trkpt lat="43.55998" lon="6.01123">
        <ele>312</ele>
        <time>2021-10-14T10:00:24Z</time>
      </trkpt>
      <trkpt lat="43.56012" lon="6.00893">
        <ele>300</ele>
        <time>2021-10-14T10:00:54Z</time>
      </trkpt>
      <trkpt lat="43.56022" lon="6.00868">
        <ele>299</ele>
        <time>2021-10-14T10:00:58Z</time>
      </trkpt>
      <trkpt lat="43.56016" lon="6.00823">
        <ele>298</ele>
        <time>2021-10-14T10:01:04Z</time>
      </trkpt>
      <trkpt lat="43.56015" lon="6.00748">
        <ele>294</ele>
        <time>2021-10-14T10:01:14Z</time>
      </trkpt>
      <trkpt lat="43.55951" lon="6.00692">
        <ele>288</ele>
        <time>2021-10-14T10:01:27Z</time>
      </trkpt>
      <trkpt lat="43.55891" lon="6.00706">
        <ele>285</ele>
        <time>2021-10-14T10:01:38Z</time>
      </trkpt>
      <trkpt lat="43.55874" lon="6.00704">
        <ele>283</ele>
        <time>2021-10-14T10:01:41Z</time>
      </trkpt>
      <trkpt lat="43.55865" lon="6.00694">
        <ele>280</ele>
        <time>2021-10-14T10:01:44Z</time>
      </trkpt>
      <trkpt lat="43.55862" lon="6.00667">
        <ele>277</ele>
        <time>2021-10-14T10:01:47Z</time>
      </trkpt>
      <trkpt lat="43.55856" lon="6.00667">
        <ele>277</ele>
        <time>2021-10-14T10:01:48Z</time>
      </trkpt>
      <trkpt lat="43.5585" lon="6.00693">
        <ele>278</ele>
        <time>2021-10-14T10:01:52Z</time>
      </trkpt>
      <trkpt lat="43.55841" lon="6.00719">
        <ele>279</ele>
        <time>2021-10-14T10:01:57Z</time>
      </trkpt>
      <trkpt lat="43.55827" lon="6.00659">
        <ele>272</ele>
        <time>2021-10-14T10:02:05Z</time>
      </trkpt>
      <trkpt lat="43.55815" lon="6.00601">
        <ele>265</ele>
        <time>2021-10-14T10:02:13Z</time>
      </trkpt>
      <trkpt lat="43.558" lon="6.00565">
        <ele>262</ele>
        <time>2021-10-14T10:02:19Z</time>
      </trkpt>
      <trkpt lat="43.55791" lon="6.00547">
        <ele>261</ele>
        <time>2021-10-14T10:02:22Z</time>
      </trkpt>
      <trkpt lat="43.55803" lon="6.00533">
        <ele>262</ele>
        <time>2021-10-14T10:02:25Z</time>
      </trkpt>
      <trkpt lat="43.55819" lon="6.00522">
        <ele>264</ele>
        <time>2021-10-14T10:02:28Z</time>
      </trkpt>
      <trkpt lat="43.55828" lon="6.00527">
        <ele>264</ele>
        <time>2021-10-14T10:02:30Z</time>
      </trkpt>
      <trkpt lat="43.55863" lon="6.00497">
        <ele>266</ele>
        <time>2021-10-14T10:02:37Z</time>
      </trkpt>
      <trkpt lat="43.55838" lon="6.00523">
        <ele>265</ele>
        <time>2021-10-14T10:02:43Z</time>
      </trkpt>
      <trkpt lat="43.55825" lon="6.00528">
        <ele>264</ele>
        <time>2021-10-14T10:02:48Z</time>
      </trkpt>
      <trkpt lat="43.55846" lon="6.00516">
        <ele>265</ele>
        <time>2021-10-14T10:02:52Z</time>
      </trkpt>
      <trkpt lat="43.5587" lon="6.00527">
        <ele>267</ele>
        <time>2021-10-14T10:02:57Z</time>
      </trkpt>
      <trkpt lat="43.55939" lon="6.00447">
        <ele>269</ele>
        <time>2021-10-14T10:03:13Z</time>
      </trkpt>
      <trkpt lat="43.55979" lon="6.00414">
        <ele>267</ele>
        <time>2021-10-14T10:03:21Z</time>
      </trkpt>
      <trkpt lat="43.55987" lon="6.00421">
        <ele>266</ele>
        <time>2021-10-14T10:03:23Z</time>
      </trkpt>
      <trkpt lat="43.5601" lon="6.00509">
        <ele>271</ele>
        <time>2021-10-14T10:03:36Z</time>
      </trkpt>
      <trkpt lat="43.55998" lon="6.00555">
        <ele>277</ele>
        <time>2021-10-14T10:03:42Z</time>
      </trkpt>
      <trkpt lat="43.56022" lon="6.00632">
        <ele>284</ele>
        <time>2021-10-14T10:03:53Z</time>
      </trkpt>
      <trkpt lat="43.5602" lon="6.00673">
        <ele>288</ele>
        <time>2021-10-14T10:03:58Z</time>
      </trkpt>
      <trkpt lat="43.56025" lon="6.00711">
        <ele>291</ele>
        <time>2021-10-14T10:04:04Z</time>
      </trkpt>
      <trkpt lat="43.56044" lon="6.00682">
        <ele>289</ele>
        <time>2021-10-14T10:04:09Z</time>
      </trkpt>
      <trkpt lat="43.56088" lon="6.00701">
        <ele>291</ele>
        <time>2021-10-14T10:04:17Z</time>
      </trkpt>
      <trkpt lat="43.56152" lon="6.00667">
        <ele>292</ele>
        <time>2021-10-14T10:04:29Z</time>
      </trkpt>
      <trkpt lat="43.56171" lon="6.00636">
        <ele>290</ele>
        <time>2021-10-14T10:04:35Z</time>
      </trkpt>
      <trkpt lat="43.56197" lon="6.00602">
        <ele>290</ele>
        <time>2021-10-14T10:04:41Z</time>
      </trkpt>
      <trkpt lat="43.5627" lon="6.00508">
        <ele>300</ele>
        <time>2021-10-14T10:04:59Z</time>
      </trkpt>
      <trkpt lat="43.56305" lon="6.00474">
        <ele>301</ele>
        <time>2021-10-14T10:05:07Z</time>
      </trkpt>
      <trkpt lat="43.56375" lon="6.00498">
        <ele>307</ele>
        <time>2021-10-14T10:05:20Z</time>
      </trkpt>
      <trkpt lat="43.56432" lon="6.005">
        <ele>310</ele>
        <time>2021-10-14T10:05:30Z</time>
      </trkpt>
      <trkpt lat="43.56484" lon="6.00527">
        <ele>310</ele>
        <time>2021-10-14T10:05:40Z</time>
      </trkpt>
      <trkpt lat="43.56494" lon="6.00551">
        <ele>309</ele>
        <time>2021-10-14T10:05:44Z</time>
      </trkpt>
      <trkpt lat="43.56468" lon="6.00563">
        <ele>307</ele>
        <time>2021-10-14T10:05:49Z</time>
      </trkpt>
      <trkpt lat="43.56426" lon="6.00632">
        <ele>305</ele>
        <time>2021-10-14T10:06:01Z</time>
      </trkpt>
      <trkpt lat="43.56451" lon="6.00594">
        <ele>305</ele>
        <time>2021-10-14T10:06:09Z</time>
      </trkpt>
      <trkpt lat="43.56485" lon="6.0056">
        <ele>308</ele>
        <time>2021-10-14T10:06:16Z</time>
      </trkpt>
      <trkpt lat="43.56501" lon="6.00555">
        <ele>309</ele>
        <time>2021-10-14T10:06:19Z</time>
      </trkpt>
      <trkpt lat="43.56478" lon="6.00558">
        <ele>308</ele>
        <time>2021-10-14T10:06:24Z</time>
      </trkpt>
      <trkpt lat="43.56483" lon="6.00556">
        <ele>308</ele>
        <time>2021-10-14T10:06:27Z</time>
      </trkpt>
      <trkpt lat="43.56555" lon="6.00474">
        <ele>312</ele>
        <time>2021-10-14T10:06:43Z</time>
      </trkpt>
      <trkpt lat="43.56601" lon="6.00387">
        <ele>311</ele>
        <time>2021-10-14T10:06:57Z</time>
      </trkpt>
      <trkpt lat="43.56628" lon="6.00288">
        <ele>308</ele>
        <time>2021-10-14T10:07:11Z</time>
      </trkpt>
      <trkpt lat="43.56687" lon="6.00004">
        <ele>314</ele>
        <time>2021-10-14T10:07:49Z</time>
      </trkpt>
      <trkpt lat="43.56713" lon="5.9987">
        <ele>322</ele>
        <time>2021-10-14T10:08:07Z</time>
      </trkpt>
      <trkpt lat="43.56712" lon="5.99882">
        <ele>322</ele>
        <time>2021-10-14T10:08:09Z</time>
      </trkpt>
      <trkpt lat="43.56786" lon="5.9967">
        <ele>322</ele>
        <time>2021-10-14T10:08:39Z</time>
      </trkpt>
      <trkpt lat="43.56871" lon="5.99546">
        <ele>307</ele>
        <time>2021-10-14T10:09:01Z</time>
      </trkpt>
      <trkpt lat="43.56905" lon="5.99381">
        <ele>303</ele>
        <time>2021-10-14T10:09:24Z</time>
      </trkpt>
      <trkpt lat="43.56938" lon="5.99291">
        <ele>297</ele>
        <time>2021-10-14T10:09:37Z</time>
      </trkpt>
      <trkpt lat="43.56975" lon="5.99243">
        <ele>296</ele>
        <time>2021-10-14T10:09:46Z</time>
      </trkpt>
      <trkpt lat="43.5707" lon="5.99179">
        <ele>297</ele>
        <time>2021-10-14T10:10:05Z</time>
      </trkpt>
      <trkpt lat="43.5711" lon="5.99137">
        <ele>297</ele>
        <time>2021-10-14T10:10:14Z</time>
      </trkpt>
      <trkpt lat="43.57145" lon="5.99063">
        <ele>294</ele>
        <time>2021-10-14T10:10:25Z</time>
      </trkpt>
      <trkpt lat="43.57156" lon="5.98983">
        <ele>290</ele>
        <time>2021-10-14T10:10:36Z</time>
      </trkpt>
      <trkpt lat="43.57131" lon="5.98805">
        <ele>287</ele>
        <time>2021-10-14T10:10:59Z</time>
      </trkpt>
      <trkpt lat="43.57133" lon="5.98742">
        <ele>284</ele>
        <time>2021-10-14T10:11:07Z</time>
      </trkpt>
      <trkpt lat="43.57171" lon="5.98643">
        <ele>281</ele>
        <time>2021-10-14T10:11:22Z</time>
      </trkpt>
      <trkpt lat="43.57248" lon="5.98554">
        <ele>282</ele>
        <time>2021-10-14T10:11:40Z</time>
      </trkpt>
      <trkpt lat="43.57347" lon="5.98463">
        <ele>271</ele>
        <time>2021-10-14T10:12:01Z</time>
      </trkpt>
      <trkpt lat="43.57386" lon="5.9839">
        <ele>275</ele>
        <time>2021-10-14T10:12:13Z</time>
      </trkpt>
      <trkpt lat="43.57396" lon="5.98332">
        <ele>280</ele>
        <time>2021-10-14T10:12:20Z</time>
      </trkpt>
      <trkpt lat="43.57385" lon="5.98257">
        <ele>278</ele>
        <time>2021-10-14T10:12:30Z</time>
      </trkpt>
      <trkpt lat="43.57337" lon="5.98148">
        <ele>274</ele>
        <time>2021-10-14T10:12:47Z</time>
      </trkpt>
      <trkpt lat="43.5732" lon="5.98092">
        <ele>279</ele>
        <time>2021-10-14T10:12:54Z</time>
      </trkpt>
      <trkpt lat="43.57317" lon="5.98021">
        <ele>278</ele>
        <time>2021-10-14T10:13:04Z</time>
      </trkpt>
      <trkpt lat="43.57379" lon="5.97843">
        <ele>284</ele>
        <time>2021-10-14T10:13:29Z</time>
      </trkpt>
      <trkpt lat="43.57418" lon="5.9778">
        <ele>279</ele>
        <time>2021-10-14T10:13:40Z</time>
      </trkpt>
      <trkpt lat="43.57454" lon="5.97756">
        <ele>279</ele>
        <time>2021-10-14T10:13:47Z</time>
      </trkpt>
      <trkpt lat="43.57515" lon="5.97753">
        <ele>280</ele>
        <time>2021-10-14T10:13:58Z</time>
      </trkpt>
      <trkpt lat="43.57555" lon="5.97772">
        <ele>282</ele>
        <time>2021-10-14T10:14:06Z</time>
      </trkpt>
      <trkpt lat="43.57595" lon="5.97811">
        <ele>283</ele>
        <time>2021-10-14T10:14:14Z</time>
      </trkpt>
      <trkpt lat="43.57697" lon="5.97879">
        <ele>277</ele>
        <time>2021-10-14T10:14:35Z</time>
      </trkpt>
      <trkpt lat="43.57947" lon="5.97821">
        <ele>276</ele>
        <time>2021-10-14T10:15:20Z</time>
      </trkpt>
      <trkpt lat="43.58008" lon="5.97785">
        <ele>277</ele>
        <time>2021-10-14T10:15:32Z</time>
      </trkpt>
      <trkpt lat="43.58054" lon="5.97743">
        <ele>280</ele>
        <time>2021-10-14T10:15:42Z</time>
      </trkpt>
      <trkpt lat="43.58102" lon="5.97667">
        <ele>290</ele>
        <time>2021-10-14T10:15:55Z</time>
      </trkpt>
      <trkpt lat="43.58262" lon="5.97331">
        <ele>296</ele>
        <time>2021-10-14T10:16:47Z</time>
      </trkpt>
      <trkpt lat="43.58319" lon="5.97215">
        <ele>299</ele>
        <time>2021-10-14T10:17:05Z</time>
      </trkpt>
      <trkpt lat="43.58352" lon="5.9711">
        <ele>296</ele>
        <time>2021-10-14T10:17:20Z</time>
      </trkpt>
      <trkpt lat="43.58365" lon="5.9705">
        <ele>292</ele>
        <time>2021-10-14T10:17:28Z</time>
      </trkpt>
      <trkpt lat="43.58395" lon="5.97012">
        <ele>291</ele>
        <time>2021-10-14T10:17:35Z</time>
      </trkpt>
      <trkpt lat="43.58432" lon="5.96998">
        <ele>293</ele>
        <time>2021-10-14T10:17:42Z</time>
      </trkpt>
      <trkpt lat="43.58476" lon="5.96997">
        <ele>300</ele>
        <time>2021-10-14T10:17:50Z</time>
      </trkpt>
      <trkpt lat="43.58502" lon="5.9698">
        <ele>301</ele>
        <time>2021-10-14T10:17:55Z</time>
      </trkpt>
      <trkpt lat="43.58549" lon="5.96902">
        <ele>294</ele>
        <time>2021-10-14T10:18:08Z</time>
      </trkpt>
      <trkpt lat="43.58602" lon="5.96856">
        <ele>293</ele>
        <time>2021-10-14T10:18:19Z</time>
      </trkpt>
      <trkpt lat="43.5868" lon="5.96819">
        <ele>294</ele>
        <time>2021-10-14T10:18:34Z</time>
      </trkpt>
      <trkpt lat="43.58852" lon="5.96694">
        <ele>302</ele>
        <time>2021-10-14T10:19:09Z</time>
      </trkpt>
      <trkpt lat="43.58924" lon="5.96596">
        <ele>301</ele>
        <time>2021-10-14T10:19:27Z</time>
      </trkpt>
      <trkpt lat="43.58945" lon="5.9655">
        <ele>302</ele>
        <time>2021-10-14T10:19:34Z</time>
      </trkpt>
      <trkpt lat="43.58966" lon="5.96514">
        <ele>305</ele>
        <time>2021-10-14T10:19:40Z</time>
      </trkpt>
      <trkpt lat="43.59055" lon="5.9638">
        <ele>307</ele>
        <time>2021-10-14T10:20:04Z</time>
      </trkpt>
      <trkpt lat="43.59086" lon="5.96313">
        <ele>307</ele>
        <time>2021-10-14T10:20:14Z</time>
      </trkpt>
      <trkpt lat="43.59102" lon="5.96223">
        <ele>307</ele>
        <time>2021-10-14T10:20:26Z</time>
      </trkpt>
      <trkpt lat="43.59147" lon="5.9607">
        <ele>312</ele>
        <time>2021-10-14T10:20:47Z</time>
      </trkpt>
      <trkpt lat="43.59198" lon="5.95989">
        <ele>312</ele>
        <time>2021-10-14T10:21:01Z</time>
      </trkpt>
      <trkpt lat="43.59253" lon="5.9593">
        <ele>308</ele>
        <time>2021-10-14T10:21:13Z</time>
      </trkpt>
      <trkpt lat="43.59301" lon="5.959">
        <ele>305</ele>
        <time>2021-10-14T10:21:23Z</time>
      </trkpt>
      <trkpt lat="43.59354" lon="5.95893">
        <ele>304</ele>
        <time>2021-10-14T10:21:32Z</time>
      </trkpt>
      <trkpt lat="43.59453" lon="5.95866">
        <ele>311</ele>
        <time>2021-10-14T10:21:50Z</time>
      </trkpt>
      <trkpt lat="43.59498" lon="5.95821">
        <ele>322</ele>
        <time>2021-10-14T10:22:00Z</time>
      </trkpt>
      <trkpt lat="43.59548" lon="5.95737">
        <ele>318</ele>
        <time>2021-10-14T10:22:14Z</time>
      </trkpt>
      <trkpt lat="43.59547" lon="5.95732">
        <ele>318</ele>
        <time>2021-10-14T10:22:16Z</time>
      </trkpt>
      <trkpt lat="43.59551" lon="5.95711">
        <ele>318</ele>
        <time>2021-10-14T10:22:19Z</time>
      </trkpt>
      <trkpt lat="43.596" lon="5.95622">
        <ele>320</ele>
        <time>2021-10-14T10:22:33Z</time>
      </trkpt>
      <trkpt lat="43.59659" lon="5.95563">
        <ele>321</ele>
        <time>2021-10-14T10:22:46Z</time>
      </trkpt>
      <trkpt lat="43.59748" lon="5.9545">
        <ele>330</ele>
        <time>2021-10-14T10:23:08Z</time>
      </trkpt>
      <trkpt lat="43.59813" lon="5.95402">
        <ele>328</ele>
        <time>2021-10-14T10:23:21Z</time>
      </trkpt>
      <trkpt lat="43.59855" lon="5.95351">
        <ele>329</ele>
        <time>2021-10-14T10:23:31Z</time>
      </trkpt>
      <trkpt lat="43.59886" lon="5.95207">
        <ele>328</ele>
        <time>2021-10-14T10:23:50Z</time>
      </trkpt>
      <trkpt lat="43.59901" lon="5.95078">
        <ele>320</ele>
        <time>2021-10-14T10:24:07Z</time>
      </trkpt>
      <trkpt lat="43.59936" lon="5.9491">
        <ele>320</ele>
        <time>2021-10-14T10:24:30Z</time>
      </trkpt>
      <trkpt lat="43.59955" lon="5.94709">
        <ele>317</ele>
        <time>2021-10-14T10:24:56Z</time>
      </trkpt>
      <trkpt lat="43.60004" lon="5.94582">
        <ele>319</ele>
        <time>2021-10-14T10:25:15Z</time>
      </trkpt>
      <trkpt lat="43.6017" lon="5.94334">
        <ele>320</ele>
        <time>2021-10-14T10:25:58Z</time>
      </trkpt>
      <trkpt lat="43.6029" lon="5.9419">
        <ele>325</ele>
        <time>2021-10-14T10:26:26Z</time>
      </trkpt>
      <trkpt lat="43.60319" lon="5.94114">
        <ele>326</ele>
        <time>2021-10-14T10:26:38Z</time>
      </trkpt>
      <trkpt lat="43.60325" lon="5.94032">
        <ele>326</ele>
        <time>2021-10-14T10:26:48Z</time>
      </trkpt>
      <trkpt lat="43.603" lon="5.93867">
        <ele>332</ele>
        <time>2021-10-14T10:27:10Z</time>
      </trkpt>
      <trkpt lat="43.60281" lon="5.93768">
        <ele>335</ele>
        <time>2021-10-14T10:27:23Z</time>
      </trkpt>
      <trkpt lat="43.60258" lon="5.93592">
        <ele>337</ele>
        <time>2021-10-14T10:27:46Z</time>
      </trkpt>
      <trkpt lat="43.60244" lon="5.93509">
        <ele>337</ele>
        <time>2021-10-14T10:27:57Z</time>
      </trkpt>
      <trkpt lat="43.60249" lon="5.93428">
        <ele>330</ele>
        <time>2021-10-14T10:28:08Z</time>
      </trkpt>
      <trkpt lat="43.60259" lon="5.93366">
        <ele>329</ele>
        <time>2021-10-14T10:28:16Z</time>
      </trkpt>
      <trkpt lat="43.60272" lon="5.93316">
        <ele>330</ele>
        <time>2021-10-14T10:28:23Z</time>
      </trkpt>
      <trkpt lat="43.6029" lon="5.93309">
        <ele>330</ele>
        <time>2021-10-14T10:28:26Z</time>
      </trkpt>
      <trkpt lat="43.60318" lon="5.93269">
        <ele>332</ele>
        <time>2021-10-14T10:28:34Z</time>
      </trkpt>
      <trkpt lat="43.60354" lon="5.93113">
        <ele>339</ele>
        <time>2021-10-14T10:28:55Z</time>
      </trkpt>
      <trkpt lat="43.60354" lon="5.93045">
        <ele>340</ele>
        <time>2021-10-14T10:29:04Z</time>
      </trkpt>
      <trkpt lat="43.60339" lon="5.93001">
        <ele>336</ele>
        <time>2021-10-14T10:29:10Z</time>
      </trkpt>
      <trkpt lat="43.60254" lon="5.92901">
        <ele>340</ele>
        <time>2021-10-14T10:29:30Z</time>
      </trkpt>
      <trkpt lat="43.60204" lon="5.92856">
        <ele>347</ele>
        <time>2021-10-14T10:29:41Z</time>
      </trkpt>
      <trkpt lat="43.60162" lon="5.92872">
        <ele>344</ele>
        <time>2021-10-14T10:29:49Z</time>
      </trkpt>
      <trkpt lat="43.60143" lon="5.92869">
        <ele>345</ele>
        <time>2021-10-14T10:29:52Z</time>
      </trkpt>
      <trkpt lat="43.60115" lon="5.92851">
        <ele>344</ele>
        <time>2021-10-14T10:29:58Z</time>
      </trkpt>
      <trkpt lat="43.60096" lon="5.92817">
        <ele>342</ele>
        <time>2021-10-14T10:30:03Z</time>
      </trkpt>
      <trkpt lat="43.60092" lon="5.92746">
        <ele>344</ele>
        <time>2021-10-14T10:30:12Z</time>
      </trkpt>
      <trkpt lat="43.60078" lon="5.92709">
        <ele>344</ele>
        <time>2021-10-14T10:30:18Z</time>
      </trkpt>
      <trkpt lat="43.60009" lon="5.92644">
        <ele>342</ele>
        <time>2021-10-14T10:30:33Z</time>
      </trkpt>
      <trkpt lat="43.5996" lon="5.92541">
        <ele>341</ele>
        <time>2021-10-14T10:30:49Z</time>
      </trkpt>
      <trkpt lat="43.599" lon="5.92416">
        <ele>339</ele>
        <time>2021-10-14T10:31:08Z</time>
      </trkpt>
      <trkpt lat="43.59895" lon="5.92356">
        <ele>343</ele>
        <time>2021-10-14T10:31:16Z</time>
      </trkpt>
      <trkpt lat="43.59918" lon="5.92033">
        <ele>346</ele>
        <time>2021-10-14T10:31:58Z</time>
      </trkpt>
      <trkpt lat="43.59879" lon="5.9181">
        <ele>352</ele>
        <time>2021-10-14T10:32:27Z</time>
      </trkpt>
      <trkpt lat="43.59846" lon="5.91717">
        <ele>349</ele>
        <time>2021-10-14T10:32:41Z</time>
      </trkpt>
      <trkpt lat="43.59832" lon="5.91448">
        <ele>349</ele>
        <time>2021-10-14T10:33:16Z</time>
      </trkpt>
      <trkpt lat="43.59847" lon="5.91173">
        <ele>355</ele>
        <time>2021-10-14T10:33:51Z</time>
      </trkpt>
      <trkpt lat="43.59854" lon="5.91107">
        <ele>355</ele>
        <time>2021-10-14T10:34:00Z</time>
      </trkpt>
      <trkpt lat="43.59799" lon="5.91056">
        <ele>355</ele>
        <time>2021-10-14T10:34:12Z</time>
      </trkpt>
      <trkpt lat="43.59756" lon="5.90978">
        <ele>358</ele>
        <time>2021-10-14T10:34:24Z</time>
      </trkpt>
      <trkpt lat="43.59685" lon="5.9072">
        <ele>368</ele>
        <time>2021-10-14T10:35:00Z</time>
      </trkpt>
      <trkpt lat="43.59683" lon="5.90659">
        <ele>369</ele>
        <time>2021-10-14T10:35:08Z</time>
      </trkpt>
      <trkpt lat="43.5969" lon="5.90436">
        <ele>367</ele>
        <time>2021-10-14T10:35:37Z</time>
      </trkpt>
      <trkpt lat="43.59666" lon="5.90328">
        <ele>364</ele>
        <time>2021-10-14T10:35:52Z</time>
      </trkpt>
      <trkpt lat="43.59597" lon="5.9025">
        <ele>366</ele>
        <time>2021-10-14T10:36:08Z</time>
      </trkpt>
      <trkpt lat="43.59572" lon="5.90208">
        <ele>367</ele>
        <time>2021-10-14T10:36:15Z</time>
      </trkpt>
      <trkpt lat="43.59516" lon="5.90024">
        <ele>369</ele>
        <time>2021-10-14T10:36:41Z</time>
      </trkpt>
      <trkpt lat="43.59514" lon="5.89807">
        <ele>374</ele>
        <time>2021-10-14T10:37:09Z</time>
      </trkpt>
      <trkpt lat="43.59467" lon="5.89591">
        <ele>378</ele>
        <time>2021-10-14T10:37:38Z</time>
      </trkpt>
      <trkpt lat="43.59422" lon="5.89504">
        <ele>380</ele>
        <time>2021-10-14T10:37:52Z</time>
      </trkpt>
      <trkpt lat="43.59409" lon="5.89426">
        <ele>380</ele>
        <time>2021-10-14T10:38:02Z</time>
      </trkpt>
      <trkpt lat="43.59395" lon="5.89382">
        <ele>381</ele>
        <time>2021-10-14T10:38:08Z</time>
      </trkpt>
      <trkpt lat="43.59361" lon="5.8933">
        <ele>385</ele>
        <time>2021-10-14T10:38:17Z</time>
      </trkpt>
      <trkpt lat="43.59346" lon="5.89248">
        <ele>389</ele>
        <time>2021-10-14T10:38:28Z</time>
      </trkpt>
      <trkpt lat="43.59274" lon="5.89134">
        <ele>399</ele>
        <time>2021-10-14T10:38:48Z</time>
      </trkpt>
      <trkpt lat="43.59234" lon="5.89032">
        <ele>402</ele>
        <time>2021-10-14T10:39:03Z</time>
      </trkpt>
      <trkpt lat="43.59277" lon="5.88854">
        <ele>402</ele>
        <time>2021-10-14T10:39:27Z</time>
      </trkpt>
      <trkpt lat="43.5929" lon="5.88789">
        <ele>402</ele>
        <time>2021-10-14T10:39:36Z</time>
      </trkpt>
      <trkpt lat="43.59276" lon="5.88433">
        <ele>410</ele>
        <time>2021-10-14T10:40:22Z</time>
      </trkpt>
      <trkpt lat="43.59272" lon="5.88261">
        <ele>413</ele>
        <time>2021-10-14T10:40:44Z</time>
      </trkpt>
      <trkpt lat="43.59291" lon="5.88135">
        <ele>411</ele>
        <time>2021-10-14T10:41:01Z</time>
      </trkpt>
      <trkpt lat="43.59332" lon="5.87956">
        <ele>410</ele>
        <time>2021-10-14T10:41:25Z</time>
      </trkpt>
      <trkpt lat="43.59419" lon="5.87636">
        <ele>412</ele>
        <time>2021-10-14T10:42:09Z</time>
      </trkpt>
      <trkpt lat="43.59412" lon="5.87529">
        <ele>409</ele>
        <time>2021-10-14T10:42:23Z</time>
      </trkpt>
      <trkpt lat="43.59429" lon="5.87441">
        <ele>406</ele>
        <time>2021-10-14T10:42:35Z</time>
      </trkpt>
      <trkpt lat="43.59508" lon="5.87284">
        <ele>405</ele>
        <time>2021-10-14T10:43:00Z</time>
      </trkpt>
      <trkpt lat="43.59522" lon="5.87213">
        <ele>403</ele>
        <time>2021-10-14T10:43:09Z</time>
      </trkpt>
      <trkpt lat="43.59515" lon="5.87008">
        <ele>401</ele>
        <time>2021-10-14T10:43:36Z</time>
      </trkpt>
      <trkpt lat="43.59543" lon="5.86791">
        <ele>410</ele>
        <time>2021-10-14T10:44:04Z</time>
      </trkpt>
      <trkpt lat="43.59595" lon="5.86655">
        <ele>416</ele>
        <time>2021-10-14T10:44:24Z</time>
      </trkpt>
      <trkpt lat="43.59596" lon="5.86592">
        <ele>417</ele>
        <time>2021-10-14T10:44:32Z</time>
      </trkpt>
      <trkpt lat="43.59523" lon="5.86461">
        <ele>422</ele>
        <time>2021-10-14T10:44:54Z</time>
      </trkpt>
      <trkpt lat="43.59392" lon="5.86306">
        <ele>428</ele>
        <time>2021-10-14T10:45:24Z</time>
      </trkpt>
      <trkpt lat="43.59362" lon="5.86238">
        <ele>432</ele>
        <time>2021-10-14T10:45:35Z</time>
      </trkpt>
      <trkpt lat="43.59358" lon="5.86194">
        <ele>433</ele>
        <time>2021-10-14T10:45:41Z</time>
      </trkpt>
      <trkpt lat="43.59366" lon="5.86015">
        <ele>433</ele>
        <time>2021-10-14T10:46:04Z</time>
      </trkpt>
      <trkpt lat="43.59341" lon="5.85821">
        <ele>433</ele>
        <time>2021-10-14T10:46:29Z</time>
      </trkpt>
      <trkpt lat="43.59324" lon="5.8559">
        <ele>433</ele>
        <time>2021-10-14T10:46:59Z</time>
      </trkpt>
      <trkpt lat="43.59292" lon="5.85425">
        <ele>431</ele>
        <time>2021-10-14T10:47:21Z</time>
      </trkpt>
      <trkpt lat="43.59324" lon="5.85293">
        <ele>433</ele>
        <time>2021-10-14T10:47:40Z</time>
      </trkpt>
      <trkpt lat="43.5932" lon="5.85173">
        <ele>436</ele>
        <time>2021-10-14T10:47:55Z</time>
      </trkpt>
      <trkpt lat="43.59283" lon="5.85045">
        <ele>442</ele>
        <time>2021-10-14T10:48:13Z</time>
      </trkpt>
      <trkpt lat="43.59288" lon="5.84939">
        <ele>435</ele>
        <time>2021-10-14T10:48:27Z</time>
      </trkpt>
      <trkpt lat="43.59275" lon="5.84798">
        <ele>434</ele>
        <time>2021-10-14T10:48:45Z</time>
      </trkpt>
      <trkpt lat="43.59197" lon="5.84632">
        <ele>434</ele>
        <time>2021-10-14T10:49:11Z</time>
      </trkpt>
      <trkpt lat="43.59182" lon="5.84618">
        <ele>435</ele>
        <time>2021-10-14T10:49:14Z</time>
      </trkpt>
      <trkpt lat="43.59183" lon="5.84613">
        <ele>434</ele>
        <time>2021-10-14T10:49:18Z</time>
      </trkpt>
      <trkpt lat="43.59185" lon="5.84599">
        <ele>433</ele>
        <time>2021-10-14T10:49:20Z</time>
      </trkpt>
      <trkpt lat="43.59189" lon="5.84549">
        <ele>431</ele>
        <time>2021-10-14T10:49:27Z</time>
      </trkpt>
      <trkpt lat="43.5929" lon="5.84194">
        <ele>423</ele>
        <time>2021-10-14T10:50:16Z</time>
      </trkpt>
      <trkpt lat="43.59331" lon="5.84133">
        <ele>424</ele>
        <time>2021-10-14T10:50:27Z</time>
      </trkpt>
      <trkpt lat="43.59386" lon="5.84066">
        <ele>423</ele>
        <time>2021-10-14T10:50:40Z</time>
      </trkpt>
      <trkpt lat="43.59395" lon="5.83987">
        <ele>422</ele>
        <time>2021-10-14T10:50:50Z</time>
      </trkpt>
      <trkpt lat="43.59443" lon="5.83803">
        <ele>419</ele>
        <time>2021-10-14T10:51:16Z</time>
      </trkpt>
      <trkpt lat="43.59528" lon="5.83614">
        <ele>412</ele>
        <time>2021-10-14T10:51:44Z</time>
      </trkpt>
      <trkpt lat="43.59617" lon="5.83458">
        <ele>405</ele>
        <time>2021-10-14T10:52:10Z</time>
      </trkpt>
      <trkpt lat="43.59658" lon="5.83371">
        <ele>402</ele>
        <time>2021-10-14T10:52:23Z</time>
      </trkpt>
      <trkpt lat="43.59741" lon="5.83284">
        <ele>393</ele>
        <time>2021-10-14T10:52:42Z</time>
      </trkpt>
      <trkpt lat="43.59802" lon="5.83201">
        <ele>388</ele>
        <time>2021-10-14T10:52:57Z</time>
      </trkpt>
      <trkpt lat="43.59838" lon="5.83126">
        <ele>386</ele>
        <time>2021-10-14T10:53:09Z</time>
      </trkpt>
      <trkpt lat="43.59902" lon="5.82754">
        <ele>381</ele>
        <time>2021-10-14T10:53:58Z</time>
      </trkpt>
      <trkpt lat="43.59911" lon="5.82585">
        <ele>381</ele>
        <time>2021-10-14T10:54:20Z</time>
      </trkpt>
      <trkpt lat="43.59934" lon="5.82229">
        <ele>380</ele>
        <time>2021-10-14T10:55:06Z</time>
      </trkpt>
      <trkpt lat="43.59918" lon="5.81783">
        <ele>382</ele>
        <time>2021-10-14T10:56:04Z</time>
      </trkpt>
      <trkpt lat="43.5993" lon="5.81557">
        <ele>376</ele>
        <time>2021-10-14T10:56:33Z</time>
      </trkpt>
      <trkpt lat="43.59968" lon="5.81366">
        <ele>371</ele>
        <time>2021-10-14T10:56:59Z</time>
      </trkpt>
      <trkpt lat="43.60062" lon="5.80866">
        <ele>368</ele>
        <time>2021-10-14T10:58:05Z</time>
      </trkpt>
      <trkpt lat="43.6008" lon="5.80623">
        <ele>369</ele>
        <time>2021-10-14T10:58:37Z</time>
      </trkpt>
      <trkpt lat="43.60096" lon="5.80504">
        <ele>367</ele>
        <time>2021-10-14T10:58:52Z</time>
      </trkpt>
      <trkpt lat="43.60099" lon="5.80375">
        <ele>368</ele>
        <time>2021-10-14T10:59:09Z</time>
      </trkpt>
      <trkpt lat="43.60111" lon="5.80223">
        <ele>366</ele>
        <time>2021-10-14T10:59:29Z</time>
      </trkpt>
      <trkpt lat="43.6015" lon="5.80079">
        <ele>364</ele>
        <time>2021-10-14T10:59:49Z</time>
      </trkpt>
      <trkpt lat="43.60206" lon="5.79979">
        <ele>360</ele>
        <time>2021-10-14T11:00:05Z</time>
      </trkpt>
      <trkpt lat="43.60223" lon="5.79876">
        <ele>360</ele>
        <time>2021-10-14T11:00:19Z</time>
      </trkpt>
      <trkpt lat="43.60232" lon="5.79777">
        <ele>360</ele>
        <time>2021-10-14T11:00:32Z</time>
      </trkpt>
      <trkpt lat="43.60272" lon="5.79629">
        <ele>359</ele>
        <time>2021-10-14T11:00:52Z</time>
      </trkpt>
      <trkpt lat="43.60393" lon="5.79352">
        <ele>355</ele>
        <time>2021-10-14T11:01:34Z</time>
      </trkpt>
      <trkpt lat="43.60476" lon="5.79215">
        <ele>354</ele>
        <time>2021-10-14T11:01:57Z</time>
      </trkpt>
      <trkpt lat="43.60502" lon="5.79137">
        <ele>355</ele>
        <time>2021-10-14T11:02:08Z</time>
      </trkpt>
      <trkpt lat="43.60533" lon="5.78928">
        <ele>354</ele>
        <time>2021-10-14T11:02:35Z</time>
      </trkpt>
      <trkpt lat="43.60523" lon="5.78489">
        <ele>357</ele>
        <time>2021-10-14T11:03:32Z</time>
      </trkpt>
      <trkpt lat="43.60535" lon="5.7821">
        <ele>355</ele>
        <time>2021-10-14T11:04:08Z</time>
      </trkpt>
      <trkpt lat="43.60626" lon="5.77585">
        <ele>357</ele>
        <time>2021-10-14T11:05:30Z</time>
      </trkpt>
      <trkpt lat="43.60628" lon="5.77519">
        <ele>359</ele>
        <time>2021-10-14T11:05:39Z</time>
      </trkpt>
      <trkpt lat="43.60597" lon="5.77416">
        <ele>362</ele>
        <time>2021-10-14T11:05:53Z</time>
      </trkpt>
      <trkpt lat="43.60572" lon="5.77363">
        <ele>366</ele>
        <time>2021-10-14T11:06:01Z</time>
      </trkpt>
      <trkpt lat="43.60566" lon="5.7717">
        <ele>370</ele>
        <time>2021-10-14T11:06:26Z</time>
      </trkpt>
      <trkpt lat="43.60555" lon="5.77117">
        <ele>374</ele>
        <time>2021-10-14T11:06:34Z</time>
      </trkpt>
      <trkpt lat="43.6052" lon="5.77049">
        <ele>377</ele>
        <time>2021-10-14T11:06:44Z</time>
      </trkpt>
      <trkpt lat="43.60494" lon="5.76915">
        <ele>376</ele>
        <time>2021-10-14T11:07:02Z</time>
      </trkpt>
      <trkpt lat="43.60484" lon="5.76859">
        <ele>374</ele>
        <time>2021-10-14T11:07:10Z</time>
      </trkpt>
      <trkpt lat="43.60498" lon="5.76753">
        <ele>371</ele>
        <time>2021-10-14T11:07:24Z</time>
      </trkpt>
      <trkpt lat="43.60542" lon="5.76651">
        <ele>370</ele>
        <time>2021-10-14T11:07:39Z</time>
      </trkpt>
      <trkpt lat="43.60706" lon="5.76476">
        <ele>360</ele>
        <time>2021-10-14T11:08:16Z</time>
      </trkpt>
      <trkpt lat="43.60933" lon="5.76251">
        <ele>356</ele>
        <time>2021-10-14T11:09:06Z</time>
      </trkpt>
      <trkpt lat="43.61047" lon="5.76103">
        <ele>361</ele>
        <time>2021-10-14T11:09:34Z</time>
      </trkpt>
      <trkpt lat="43.61078" lon="5.76082">
        <ele>360</ele>
        <time>2021-10-14T11:09:40Z</time>
      </trkpt>
      <trkpt lat="43.61076" lon="5.76026">
        <ele>361</ele>
        <time>2021-10-14T11:09:47Z</time>
      </trkpt>
      <trkpt lat="43.61087" lon="5.75816">
        <ele>362</ele>
        <time>2021-10-14T11:10:34Z</time>
      </trkpt>
      <trkpt lat="43.61098" lon="5.75826">
        <ele>361</ele>
        <time>2021-10-14T11:10:37Z</time>
      </trkpt>
      <trkpt lat="43.61112" lon="5.75814">
        <ele>360</ele>
        <time>2021-10-14T11:10:40Z</time>
      </trkpt>
      <trkpt lat="43.61147" lon="5.75626">
        <ele>356</ele>
        <time>2021-10-14T11:11:05Z</time>
      </trkpt>
      <trkpt lat="43.61166" lon="5.75532">
        <ele>355</ele>
        <time>2021-10-14T11:11:18Z</time>
      </trkpt>
      <trkpt lat="43.6123" lon="5.75364">
        <ele>354</ele>
        <time>2021-10-14T11:11:42Z</time>
      </trkpt>
      <trkpt lat="43.61243" lon="5.75284">
        <ele>354</ele>
        <time>2021-10-14T11:11:53Z</time>
      </trkpt>
      <trkpt lat="43.61321" lon="5.75159">
        <ele>352</ele>
        <time>2021-10-14T11:12:14Z</time>
      </trkpt>
      <trkpt lat="43.61346" lon="5.7514">
        <ele>352</ele>
        <time>2021-10-14T11:12:19Z</time>
      </trkpt>
      <trkpt lat="43.61424" lon="5.75007">
        <ele>349</ele>
        <time>2021-10-14T11:12:41Z</time>
      </trkpt>
      <trkpt lat="43.61473" lon="5.74901">
        <ele>349</ele>
        <time>2021-10-14T11:12:58Z</time>
      </trkpt>
      <trkpt lat="43.61525" lon="5.74777">
        <ele>349</ele>
        <time>2021-10-14T11:13:16Z</time>
      </trkpt>
      <trkpt lat="43.61578" lon="5.74567">
        <ele>348</ele>
        <time>2021-10-14T11:13:45Z</time>
      </trkpt>
      <trkpt lat="43.61609" lon="5.74458">
        <ele>350</ele>
        <time>2021-10-14T11:14:00Z</time>
      </trkpt>
      <trkpt lat="43.61606" lon="5.74281">
        <ele>345</ele>
        <time>2021-10-14T11:14:23Z</time>
      </trkpt>
      <trkpt lat="43.6163" lon="5.73927">
        <ele>343</ele>
        <time>2021-10-14T11:15:09Z</time>
      </trkpt>
      <trkpt lat="43.61654" lon="5.73217">
        <ele>341</ele>
        <time>2021-10-14T11:16:40Z</time>
      </trkpt>
      <trkpt lat="43.61645" lon="5.73051">
        <ele>337</ele>
        <time>2021-10-14T11:17:02Z</time>
      </trkpt>
      <trkpt lat="43.61579" lon="5.72645">
        <ele>329</ele>
        <time>2021-10-14T11:17:55Z</time>
      </trkpt>
      <trkpt lat="43.61584" lon="5.72514">
        <ele>328</ele>
        <time>2021-10-14T11:18:12Z</time>
      </trkpt>
      <trkpt lat="43.61629" lon="5.72258">
        <ele>337</ele>
        <time>2021-10-14T11:18:46Z</time>
      </trkpt>
      <trkpt lat="43.61643" lon="5.72101">
        <ele>335</ele>
        <time>2021-10-14T11:19:07Z</time>
      </trkpt>
      <trkpt lat="43.61641" lon="5.71837">
        <ele>324</ele>
        <time>2021-10-14T11:19:41Z</time>
      </trkpt>
      <trkpt lat="43.61644" lon="5.71694">
        <ele>328</ele>
        <time>2021-10-14T11:19:59Z</time>
      </trkpt>
      <trkpt lat="43.61664" lon="5.7153">
        <ele>329</ele>
        <time>2021-10-14T11:20:21Z</time>
      </trkpt>
      <trkpt lat="43.61707" lon="5.71173">
        <ele>323</ele>
        <time>2021-10-14T11:21:07Z</time>
      </trkpt>
      <trkpt lat="43.61729" lon="5.71065">
        <ele>326</ele>
        <time>2021-10-14T11:21:22Z</time>
      </trkpt>
      <trkpt lat="43.61747" lon="5.7092">
        <ele>324</ele>
        <time>2021-10-14T11:21:41Z</time>
      </trkpt>
      <trkpt lat="43.6176" lon="5.70843">
        <ele>325</ele>
        <time>2021-10-14T11:21:51Z</time>
      </trkpt>
      <trkpt lat="43.61747" lon="5.70773">
        <ele>322</ele>
        <time>2021-10-14T11:22:00Z</time>
      </trkpt>
      <trkpt lat="43.61734" lon="5.70571">
        <ele>316</ele>
        <time>2021-10-14T11:22:26Z</time>
      </trkpt>
      <trkpt lat="43.61705" lon="5.70399">
        <ele>312</ele>
        <time>2021-10-14T11:22:49Z</time>
      </trkpt>
      <trkpt lat="43.61686" lon="5.70295">
        <ele>310</ele>
        <time>2021-10-14T11:23:03Z</time>
      </trkpt>
      <trkpt lat="43.61665" lon="5.70093">
        <ele>307</ele>
        <time>2021-10-14T11:23:29Z</time>
      </trkpt>
      <trkpt lat="43.61602" lon="5.69956">
        <ele>311</ele>
        <time>2021-10-14T11:23:50Z</time>
      </trkpt>
      <trkpt lat="43.61582" lon="5.69895">
        <ele>312</ele>
        <time>2021-10-14T11:23:59Z</time>
      </trkpt>
      <trkpt lat="43.61582" lon="5.69768">
        <ele>310</ele>
        <time>2021-10-14T11:24:15Z</time>
      </trkpt>
      <trkpt lat="43.61577" lon="5.69664">
        <ele>312</ele>
        <time>2021-10-14T11:24:29Z</time>
      </trkpt>
      <trkpt lat="43.61538" lon="5.69576">
        <ele>312</ele>
        <time>2021-10-14T11:24:42Z</time>
      </trkpt>
      <trkpt lat="43.61519" lon="5.69472">
        <ele>313</ele>
        <time>2021-10-14T11:24:56Z</time>
      </trkpt>
      <trkpt lat="43.61494" lon="5.69368">
        <ele>313</ele>
        <time>2021-10-14T11:25:10Z</time>
      </trkpt>
      <trkpt lat="43.61487" lon="5.69224">
        <ele>316</ele>
        <time>2021-10-14T11:25:29Z</time>
      </trkpt>
      <trkpt lat="43.61449" lon="5.6915">
        <ele>315</ele>
        <time>2021-10-14T11:25:41Z</time>
      </trkpt>
      <trkpt lat="43.61417" lon="5.69036">
        <ele>314</ele>
        <time>2021-10-14T11:25:56Z</time>
      </trkpt>
      <trkpt lat="43.61403" lon="5.68944">
        <ele>319</ele>
        <time>2021-10-14T11:26:09Z</time>
      </trkpt>
      <trkpt lat="43.61362" lon="5.68876">
        <ele>318</ele>
        <time>2021-10-14T11:26:20Z</time>
      </trkpt>
      <trkpt lat="43.61356" lon="5.68833">
        <ele>316</ele>
        <time>2021-10-14T11:26:26Z</time>
      </trkpt>
      <trkpt lat="43.61371" lon="5.68795">
        <ele>318</ele>
        <time>2021-10-14T11:26:31Z</time>
      </trkpt>
      <trkpt lat="43.61413" lon="5.68732">
        <ele>317</ele>
        <time>2021-10-14T11:26:42Z</time>
      </trkpt>
      <trkpt lat="43.6143" lon="5.68668">
        <ele>311</ele>
        <time>2021-10-14T11:26:51Z</time>
      </trkpt>
      <trkpt lat="43.6143" lon="5.68615">
        <ele>310</ele>
        <time>2021-10-14T11:26:58Z</time>
      </trkpt>
      <trkpt lat="43.61414" lon="5.68526">
        <ele>307</ele>
        <time>2021-10-14T11:27:10Z</time>
      </trkpt>
      <trkpt lat="43.61421" lon="5.68497">
        <ele>305</ele>
        <time>2021-10-14T11:27:14Z</time>
      </trkpt>
      <trkpt lat="43.61493" lon="5.68404">
        <ele>302</ele>
        <time>2021-10-14T11:27:32Z</time>
      </trkpt>
      <trkpt lat="43.61804" lon="5.68164">
        <ele>297</ele>
        <time>2021-10-14T11:28:35Z</time>
      </trkpt>
      <trkpt lat="43.61835" lon="5.68134">
        <ele>297</ele>
        <time>2021-10-14T11:28:42Z</time>
      </trkpt>
      <trkpt lat="43.61883" lon="5.68006">
        <ele>292</ele>
        <time>2021-10-14T11:29:00Z</time>
      </trkpt>
      <trkpt lat="43.61935" lon="5.67799">
        <ele>285</ele>
        <time>2021-10-14T11:29:29Z</time>
      </trkpt>
      <trkpt lat="43.61963" lon="5.67751">
        <ele>285</ele>
        <time>2021-10-14T11:29:37Z</time>
      </trkpt>
      <trkpt lat="43.6217" lon="5.67576">
        <ele>289</ele>
        <time>2021-10-14T11:30:20Z</time>
      </trkpt>
      <trkpt lat="43.62206" lon="5.6752">
        <ele>290</ele>
        <time>2021-10-14T11:30:29Z</time>
      </trkpt>
      <trkpt lat="43.62217" lon="5.67435">
        <ele>289</ele>
        <time>2021-10-14T11:30:41Z</time>
      </trkpt>
      <trkpt lat="43.62212" lon="5.67238">
        <ele>285</ele>
        <time>2021-10-14T11:31:06Z</time>
      </trkpt>
      <trkpt lat="43.62196" lon="5.67156">
        <ele>286</ele>
        <time>2021-10-14T11:31:17Z</time>
      </trkpt>
      <trkpt lat="43.62196" lon="5.66998">
        <ele>285</ele>
        <time>2021-10-14T11:31:37Z</time>
      </trkpt>
      <trkpt lat="43.62193" lon="5.6691">
        <ele>283</ele>
        <time>2021-10-14T11:31:49Z</time>
      </trkpt>
      <trkpt lat="43.62155" lon="5.6683">
        <ele>283</ele>
        <time>2021-10-14T11:32:02Z</time>
      </trkpt>
      <trkpt lat="43.62335" lon="5.66619">
        <ele>286</ele>
        <time>2021-10-14T11:32:44Z</time>
      </trkpt>
      <trkpt lat="43.62455" lon="5.66448">
        <ele>284</ele>
        <time>2021-10-14T11:33:14Z</time>
      </trkpt>
      <trkpt lat="43.62578" lon="5.66265">
        <ele>283</ele>
        <time>2021-10-14T11:33:46Z</time>
      </trkpt>
      <trkpt lat="43.62727" lon="5.65915">
        <ele>278</ele>
        <time>2021-10-14T11:34:39Z</time>
      </trkpt>
      <trkpt lat="43.62795" lon="5.65739">
        <ele>276</ele>
        <time>2021-10-14T11:35:05Z</time>
      </trkpt>
      <trkpt lat="43.62875" lon="5.65446">
        <ele>274</ele>
        <time>2021-10-14T11:35:45Z</time>
      </trkpt>
      <trkpt lat="43.62973" lon="5.65238">
        <ele>276</ele>
        <time>2021-10-14T11:36:17Z</time>
      </trkpt>
      <trkpt lat="43.62995" lon="5.65183">
        <ele>278</ele>
        <time>2021-10-14T11:36:25Z</time>
      </trkpt>
      <trkpt lat="43.6309" lon="5.64942">
        <ele>269</ele>
        <time>2021-10-14T11:37:00Z</time>
      </trkpt>
      <trkpt lat="43.6312" lon="5.6485">
        <ele>269</ele>
        <time>2021-10-14T11:37:13Z</time>
      </trkpt>
      <trkpt lat="43.63183" lon="5.64657">
        <ele>273</ele>
        <time>2021-10-14T11:37:41Z</time>
      </trkpt>
      <trkpt lat="43.63265" lon="5.64406">
        <ele>268</ele>
        <time>2021-10-14T11:38:16Z</time>
      </trkpt>
      <trkpt lat="43.63276" lon="5.64386">
        <ele>268</ele>
        <time>2021-10-14T11:38:20Z</time>
      </trkpt>
      <trkpt lat="43.63311" lon="5.64295">
        <ele>267</ele>
        <time>2021-10-14T11:38:33Z</time>
      </trkpt>
      <trkpt lat="43.63356" lon="5.64231">
        <ele>267</ele>
        <time>2021-10-14T11:38:44Z</time>
      </trkpt>
      <trkpt lat="43.63468" lon="5.64154">
        <ele>267</ele>
        <time>2021-10-14T11:39:07Z</time>
      </trkpt>
      <trkpt lat="43.63505" lon="5.6412">
        <ele>268</ele>
        <time>2021-10-14T11:39:15Z</time>
      </trkpt>
      <trkpt lat="43.63555" lon="5.64014">
        <ele>268</ele>
        <time>2021-10-14T11:39:31Z</time>
      </trkpt>
      <trkpt lat="43.63572" lon="5.64005">
        <ele>267</ele>
        <time>2021-10-14T11:39:35Z</time>
      </trkpt>
      <trkpt lat="43.63627" lon="5.64014">
        <ele>266</ele>
        <time>2021-10-14T11:39:45Z</time>
      </trkpt>
      <trkpt lat="43.63681" lon="5.64011">
        <ele>268</ele>
        <time>2021-10-14T11:39:54Z</time>
      </trkpt>
      <trkpt lat="43.63717" lon="5.64017">
        <ele>273</ele>
        <time>2021-10-14T11:40:01Z</time>
      </trkpt>
      <trkpt lat="43.6372" lon="5.64037">
        <ele>274</ele>
        <time>2021-10-14T11:40:04Z</time>
      </trkpt>
      <trkpt lat="43.63678" lon="5.64017">
        <ele>268</ele>
        <time>2021-10-14T11:40:13Z</time>
      </trkpt>
      <trkpt lat="43.6359" lon="5.64011">
        <ele>266</ele>
        <time>2021-10-14T11:40:29Z</time>
      </trkpt>
      <trkpt lat="43.6358" lon="5.64003">
        <ele>266</ele>
        <time>2021-10-14T11:40:31Z</time>
      </trkpt>
      <trkpt lat="43.63587" lon="5.63856">
        <ele>266</ele>
        <time>2021-10-14T11:40:50Z</time>
      </trkpt>
      <trkpt lat="43.6359" lon="5.638">
        <ele>265</ele>
        <time>2021-10-14T11:40:58Z</time>
      </trkpt>
      <trkpt lat="43.63591" lon="5.63753">
        <ele>264</ele>
        <time>2021-10-14T11:41:04Z</time>
      </trkpt>
      <trkpt lat="43.63603" lon="5.63635">
        <ele>264</ele>
        <time>2021-10-14T11:41:19Z</time>
      </trkpt>
      <trkpt lat="43.6358" lon="5.63569">
        <ele>263</ele>
        <time>2021-10-14T11:41:29Z</time>
      </trkpt>
      <trkpt lat="43.63586" lon="5.63459">
        <ele>265</ele>
        <time>2021-10-14T11:41:43Z</time>
      </trkpt>
      <trkpt lat="43.63646" lon="5.63475">
        <ele>261</ele>
        <time>2021-10-14T11:41:54Z</time>
      </trkpt>
      <trkpt lat="43.63647" lon="5.63454">
        <ele>262</ele>
        <time>2021-10-14T11:41:57Z</time>
      </trkpt>
      <trkpt lat="43.63679" lon="5.6335">
        <ele>261</ele>
        <time>2021-10-14T11:42:11Z</time>
      </trkpt>
      <trkpt lat="43.63692" lon="5.63311">
        <ele>260</ele>
        <time>2021-10-14T11:42:17Z</time>
      </trkpt>
      <trkpt lat="43.63677" lon="5.63286">
        <ele>261</ele>
        <time>2021-10-14T11:42:21Z</time>
      </trkpt>
      <trkpt lat="43.63629" lon="5.63271">
        <ele>261</ele>
        <time>2021-10-14T11:42:32Z</time>
      </trkpt>
      <trkpt lat="43.63609" lon="5.63291">
        <ele>263</ele>
        <time>2021-10-14T11:42:36Z</time>
      </trkpt>
      <trkpt lat="43.63549" lon="5.63227">
        <ele>259</ele>
        <time>2021-10-14T11:42:50Z</time>
      </trkpt>
      <trkpt lat="43.63529" lon="5.6322">
        <ele>258</ele>
        <time>2021-10-14T11:42:53Z</time>
      </trkpt>
      <trkpt lat="43.63521" lon="5.63232">
        <ele>258</ele>
        <time>2021-10-14T11:42:56Z</time>
      </trkpt>
      <trkpt lat="43.6356" lon="5.63328">
        <ele>268</ele>
        <time>2021-10-14T11:43:10Z</time>
      </trkpt>
      <trkpt lat="43.63522" lon="5.63241">
        <ele>258</ele>
        <time>2021-10-14T11:43:23Z</time>
      </trkpt>
      <trkpt lat="43.63495" lon="5.63193">
        <ele>257</ele>
        <time>2021-10-14T11:43:31Z</time>
      </trkpt>
      <trkpt lat="43.63479" lon="5.6311">
        <ele>258</ele>
        <time>2021-10-14T11:43:42Z</time>
      </trkpt>
      <trkpt lat="43.63485" lon="5.63034">
        <ele>257</ele>
        <time>2021-10-14T11:43:52Z</time>
      </trkpt>
      <trkpt lat="43.63514" lon="5.62873">
        <ele>255</ele>
        <time>2021-10-14T11:44:14Z</time>
      </trkpt>
      <trkpt lat="43.6352" lon="5.62695">
        <ele>252</ele>
        <time>2021-10-14T11:44:37Z</time>
      </trkpt>
      <trkpt lat="43.63536" lon="5.62637">
        <ele>252</ele>
        <time>2021-10-14T11:44:45Z</time>
      </trkpt>
      <trkpt lat="43.63524" lon="5.62607">
        <ele>250</ele>
        <time>2021-10-14T11:44:49Z</time>
      </trkpt>
      <trkpt lat="43.63532" lon="5.62528">
        <ele>249</ele>
        <time>2021-10-14T11:45:00Z</time>
      </trkpt>
      <trkpt lat="43.63544" lon="5.62414">
        <ele>246</ele>
        <time>2021-10-14T11:45:15Z</time>
      </trkpt>
      <trkpt lat="43.63599" lon="5.62273">
        <ele>250</ele>
        <time>2021-10-14T11:45:35Z</time>
      </trkpt>
      <trkpt lat="43.63606" lon="5.62271">
        <ele>249</ele>
        <time>2021-10-14T11:45:37Z</time>
      </trkpt>
      <trkpt lat="43.6364" lon="5.62305">
        <ele>248</ele>
        <time>2021-10-14T11:45:44Z</time>
      </trkpt>
      <trkpt lat="43.63704" lon="5.62097">
        <ele>254</ele>
        <time>2021-10-14T11:46:14Z</time>
      </trkpt>
      <trkpt lat="43.63728" lon="5.62">
        <ele>260</ele>
        <time>2021-10-14T11:46:27Z</time>
      </trkpt>
      <trkpt lat="43.63724" lon="5.61987">
        <ele>260</ele>
        <time>2021-10-14T11:46:29Z</time>
      </trkpt>
      <trkpt lat="43.63731" lon="5.61981">
        <ele>260</ele>
        <time>2021-10-14T11:46:30Z</time>
      </trkpt>
      <trkpt lat="43.63775" lon="5.6184">
        <ele>258</ele>
        <time>2021-10-14T11:46:50Z</time>
      </trkpt>
      <trkpt lat="43.63812" lon="5.61757">
        <ele>256</ele>
        <time>2021-10-14T11:47:03Z</time>
      </trkpt>
      <trkpt lat="43.63885" lon="5.61645">
        <ele>251</ele>
        <time>2021-10-14T11:47:22Z</time>
      </trkpt>
      <trkpt lat="43.63916" lon="5.61597">
        <ele>249</ele>
        <time>2021-10-14T11:47:31Z</time>
      </trkpt>
      <trkpt lat="43.64017" lon="5.61494">
        <ele>247</ele>
        <time>2021-10-14T11:47:53Z</time>
      </trkpt>
      <trkpt lat="43.64109" lon="5.6134">
        <ele>246</ele>
        <time>2021-10-14T11:48:19Z</time>
      </trkpt>
      <trkpt lat="43.64202" lon="5.61047">
        <ele>244</ele>
        <time>2021-10-14T11:49:00Z</time>
      </trkpt>
      <trkpt lat="43.6433" lon="5.60818">
        <ele>245</ele>
        <time>2021-10-14T11:49:37Z</time>
      </trkpt>
      <trkpt lat="43.64361" lon="5.60706">
        <ele>243</ele>
        <time>2021-10-14T11:49:53Z</time>
      </trkpt>
      <trkpt lat="43.64394" lon="5.60618">
        <ele>244</ele>
        <time>2021-10-14T11:50:06Z</time>
      </trkpt>
      <trkpt lat="43.64456" lon="5.60538">
        <ele>244</ele>
        <time>2021-10-14T11:50:21Z</time>
      </trkpt>
      <trkpt lat="43.64475" lon="5.6049">
        <ele>244</ele>
        <time>2021-10-14T11:50:28Z</time>
      </trkpt>
      <trkpt lat="43.64499" lon="5.60252">
        <ele>232</ele>
        <time>2021-10-14T11:50:59Z</time>
      </trkpt>
      <trkpt lat="43.64488" lon="5.60141">
        <ele>231</ele>
        <time>2021-10-14T11:51:13Z</time>
      </trkpt>
      <trkpt lat="43.64448" lon="5.59908">
        <ele>227</ele>
        <time>2021-10-14T11:51:44Z</time>
      </trkpt>
      <trkpt lat="43.6441" lon="5.59658">
        <ele>230</ele>
        <time>2021-10-14T11:52:17Z</time>
      </trkpt>
      <trkpt lat="43.64403" lon="5.59554">
        <ele>228</ele>
        <time>2021-10-14T11:52:31Z</time>
      </trkpt>
      <trkpt lat="43.64393" lon="5.59418">
        <ele>228</ele>
        <time>2021-10-14T11:52:48Z</time>
      </trkpt>
      <trkpt lat="43.64365" lon="5.59226">
        <ele>230</ele>
        <time>2021-10-14T11:53:13Z</time>
      </trkpt>
      <trkpt lat="43.64352" lon="5.59193">
        <ele>231</ele>
        <time>2021-10-14T11:53:18Z</time>
      </trkpt>
      <trkpt lat="43.64355" lon="5.59167">
        <ele>230</ele>
        <time>2021-10-14T11:53:22Z</time>
      </trkpt>
      <trkpt lat="43.64402" lon="5.59148">
        <ele>225</ele>
        <time>2021-10-14T11:53:31Z</time>
      </trkpt>
      <trkpt lat="43.6441" lon="5.5913">
        <ele>225</ele>
        <time>2021-10-14T11:53:34Z</time>
      </trkpt>
      <trkpt lat="43.64396" lon="5.59058">
        <ele>228</ele>
        <time>2021-10-14T11:53:43Z</time>
      </trkpt>
      <trkpt lat="43.64402" lon="5.58839">
        <ele>224</ele>
        <time>2021-10-14T11:54:12Z</time>
      </trkpt>
      <trkpt lat="43.6439" lon="5.58686">
        <ele>224</ele>
        <time>2021-10-14T11:54:31Z</time>
      </trkpt>
      <trkpt lat="43.6437" lon="5.58588">
        <ele>225</ele>
        <time>2021-10-14T11:54:45Z</time>
      </trkpt>
      <trkpt lat="43.64352" lon="5.58563">
        <ele>225</ele>
        <time>2021-10-14T11:54:49Z</time>
      </trkpt>
      <trkpt lat="43.64344" lon="5.58522">
        <ele>225</ele>
        <time>2021-10-14T11:54:55Z</time>
      </trkpt>
      <trkpt lat="43.64354" lon="5.58508">
        <ele>225</ele>
        <time>2021-10-14T11:54:57Z</time>
      </trkpt>
      <trkpt lat="43.64412" lon="5.58496">
        <ele>223</ele>
        <time>2021-10-14T11:55:08Z</time>
      </trkpt>
      <trkpt lat="43.6443" lon="5.58553">
        <ele>223</ele>
        <time>2021-10-14T11:55:18Z</time>
      </trkpt>
      <trkpt lat="43.64455" lon="5.58553">
        <ele>222</ele>
        <time>2021-10-14T11:55:23Z</time>
      </trkpt>
      <trkpt lat="43.64461" lon="5.58524">
        <ele>221</ele>
        <time>2021-10-14T11:55:27Z</time>
      </trkpt>
      <trkpt lat="43.64458" lon="5.58465">
        <ele>220</ele>
        <time>2021-10-14T11:55:35Z</time>
      </trkpt>
      <trkpt lat="43.6445" lon="5.5846">
        <ele>221</ele>
        <time>2021-10-14T11:55:39Z</time>
      </trkpt>
      <trkpt lat="43.64443" lon="5.58452">
        <ele>221</ele>
        <time>2021-10-14T11:55:40Z</time>
      </trkpt>
      <trkpt lat="43.64406" lon="5.58235">
        <ele>216</ele>
        <time>2021-10-14T11:56:09Z</time>
      </trkpt>
      <trkpt lat="43.64405" lon="5.58207">
        <ele>216</ele>
        <time>2021-10-14T11:56:13Z</time>
      </trkpt>
      <trkpt lat="43.64422" lon="5.58219">
        <ele>216</ele>
        <time>2021-10-14T11:56:17Z</time>
      </trkpt>
      <trkpt lat="43.64486" lon="5.58232">
        <ele>215</ele>
        <time>2021-10-14T11:56:28Z</time>
      </trkpt>
      <trkpt lat="43.64529" lon="5.58231">
        <ele>216</ele>
        <time>2021-10-14T11:56:36Z</time>
      </trkpt>
      <trkpt lat="43.64565" lon="5.58209">
        <ele>216</ele>
        <time>2021-10-14T11:56:43Z</time>
      </trkpt>
      <trkpt lat="43.64571" lon="5.58196">
        <ele>216</ele>
        <time>2021-10-14T11:56:45Z</time>
      </trkpt>
      <trkpt lat="43.64519" lon="5.58031">
        <ele>213</ele>
        <time>2021-10-14T11:57:08Z</time>
      </trkpt>
      <trkpt lat="43.64428" lon="5.57711">
        <ele>209</ele>
        <time>2021-10-14T11:57:52Z</time>
      </trkpt>
      <trkpt lat="43.64408" lon="5.57657">
        <ele>208</ele>
        <time>2021-10-14T11:58:00Z</time>
      </trkpt>
      <trkpt lat="43.64321" lon="5.57324">
        <ele>209</ele>
        <time>2021-10-14T11:58:46Z</time>
      </trkpt>
      <trkpt lat="43.64242" lon="5.56951">
        <ele>209</ele>
        <time>2021-10-14T11:59:36Z</time>
      </trkpt>
      <trkpt lat="43.64167" lon="5.56617">
        <ele>209</ele>
        <time>2021-10-14T12:00:21Z</time>
      </trkpt>
      <trkpt lat="43.64079" lon="5.56345">
        <ele>209</ele>
        <time>2021-10-14T12:00:59Z</time>
      </trkpt>
      <trkpt lat="43.63992" lon="5.56044">
        <ele>210</ele>
        <time>2021-10-14T12:01:41Z</time>
      </trkpt>
      <trkpt lat="43.63987" lon="5.55739">
        <ele>210</ele>
        <time>2021-10-14T12:02:20Z</time>
      </trkpt>
      <trkpt lat="43.64014" lon="5.55508">
        <ele>210</ele>
        <time>2021-10-14T12:02:51Z</time>
      </trkpt>
      <trkpt lat="43.64007" lon="5.55515">
        <ele>211</ele>
        <time>2021-10-14T12:02:52Z</time>
      </trkpt>
      <trkpt lat="43.63942" lon="5.55474">
        <ele>217</ele>
        <time>2021-10-14T12:03:05Z</time>
      </trkpt>
      <trkpt lat="43.63956" lon="5.55416">
        <ele>220</ele>
        <time>2021-10-14T12:03:14Z</time>
      </trkpt>
      <trkpt lat="43.63983" lon="5.55356">
        <ele>219</ele>
        <time>2021-10-14T12:03:23Z</time>
      </trkpt>
      <trkpt lat="43.63987" lon="5.55286">
        <ele>225</ele>
        <time>2021-10-14T12:03:32Z</time>
      </trkpt>
      <trkpt lat="43.63994" lon="5.55226">
        <ele>228</ele>
        <time>2021-10-14T12:03:40Z</time>
      </trkpt>
      <trkpt lat="43.64008" lon="5.55106">
        <ele>225</ele>
        <time>2021-10-14T12:03:56Z</time>
      </trkpt>
      <trkpt lat="43.64035" lon="5.54927">
        <ele>222</ele>
        <time>2021-10-14T12:04:19Z</time>
      </trkpt>
      <trkpt lat="43.64057" lon="5.54782">
        <ele>218</ele>
        <time>2021-10-14T12:04:39Z</time>
      </trkpt>
      <trkpt lat="43.6406" lon="5.54673">
        <ele>220</ele>
        <time>2021-10-14T12:04:53Z</time>
      </trkpt>
      <trkpt lat="43.64146" lon="5.54448">
        <ele>219</ele>
        <time>2021-10-14T12:05:25Z</time>
      </trkpt>
      <trkpt lat="43.64192" lon="5.54358">
        <ele>219</ele>
        <time>2021-10-14T12:05:40Z</time>
      </trkpt>
      <trkpt lat="43.64202" lon="5.54353">
        <ele>217</ele>
        <time>2021-10-14T12:05:42Z</time>
      </trkpt>
      <trkpt lat="43.64261" lon="5.54353">
        <ele>210</ele>
        <time>2021-10-14T12:05:53Z</time>
      </trkpt>
      <trkpt lat="43.64275" lon="5.54276">
        <ele>210</ele>
        <time>2021-10-14T12:06:04Z</time>
      </trkpt>
      <trkpt lat="43.64288" lon="5.54247">
        <ele>210</ele>
        <time>2021-10-14T12:06:08Z</time>
      </trkpt>
      <trkpt lat="43.64311" lon="5.54226">
        <ele>209</ele>
        <time>2021-10-14T12:06:13Z</time>
      </trkpt>
      <trkpt lat="43.64319" lon="5.54004">
        <ele>212</ele>
        <time>2021-10-14T12:06:42Z</time>
      </trkpt>
      <trkpt lat="43.64342" lon="5.53987">
        <ele>210</ele>
        <time>2021-10-14T12:06:46Z</time>
      </trkpt>
      <trkpt lat="43.64375" lon="5.53971">
        <ele>209</ele>
        <time>2021-10-14T12:06:53Z</time>
      </trkpt>
      <trkpt lat="43.64391" lon="5.53974">
        <ele>208</ele>
        <time>2021-10-14T12:06:56Z</time>
      </trkpt>
      <trkpt lat="43.64393" lon="5.53958">
        <ele>208</ele>
        <time>2021-10-14T12:06:58Z</time>
      </trkpt>
      <trkpt lat="43.64361" lon="5.53964">
        <ele>209</ele>
        <time>2021-10-14T12:07:04Z</time>
      </trkpt>
      <trkpt lat="43.64343" lon="5.53875">
        <ele>208</ele>
        <time>2021-10-14T12:07:16Z</time>
      </trkpt>
      <trkpt lat="43.64306" lon="5.53696">
        <ele>208</ele>
        <time>2021-10-14T12:07:40Z</time>
      </trkpt>
      <trkpt lat="43.64298" lon="5.53603">
        <ele>206</ele>
        <time>2021-10-14T12:07:52Z</time>
      </trkpt>
      <trkpt lat="43.6429" lon="5.53521">
        <ele>205</ele>
        <time>2021-10-14T12:08:03Z</time>
      </trkpt>
      <trkpt lat="43.64263" lon="5.53273">
        <ele>206</ele>
        <time>2021-10-14T12:08:35Z</time>
      </trkpt>
      <trkpt lat="43.64253" lon="5.53089">
        <ele>207</ele>
        <time>2021-10-14T12:08:59Z</time>
      </trkpt>
      <trkpt lat="43.64271" lon="5.52997">
        <ele>209</ele>
        <time>2021-10-14T12:09:11Z</time>
      </trkpt>
      <trkpt lat="43.64306" lon="5.52919">
        <ele>210</ele>
        <time>2021-10-14T12:09:23Z</time>
      </trkpt>
      <trkpt lat="43.64352" lon="5.52861">
        <ele>209</ele>
        <time>2021-10-14T12:09:34Z</time>
      </trkpt>
      <trkpt lat="43.64464" lon="5.52795">
        <ele>207</ele>
        <time>2021-10-14T12:09:56Z</time>
      </trkpt>
      <trkpt lat="43.64488" lon="5.52772">
        <ele>207</ele>
        <time>2021-10-14T12:10:01Z</time>
      </trkpt>
      <trkpt lat="43.64469" lon="5.52768">
        <ele>207</ele>
        <time>2021-10-14T12:10:05Z</time>
      </trkpt>
      <trkpt lat="43.64372" lon="5.52717">
        <ele>209</ele>
        <time>2021-10-14T12:10:23Z</time>
      </trkpt>
      <trkpt lat="43.64334" lon="5.52697">
        <ele>210</ele>
        <time>2021-10-14T12:10:30Z</time>
      </trkpt>
      <trkpt lat="43.64264" lon="5.52711">
        <ele>216</ele>
        <time>2021-10-14T12:10:43Z</time>
      </trkpt>
      <trkpt lat="43.64245" lon="5.5273">
        <ele>218</ele>
        <time>2021-10-14T12:10:47Z</time>
      </trkpt>
      <trkpt lat="43.64218" lon="5.52803">
        <ele>220</ele>
        <time>2021-10-14T12:10:58Z</time>
      </trkpt>
      <trkpt lat="43.64151" lon="5.52872">
        <ele>226</ele>
        <time>2021-10-14T12:11:13Z</time>
      </trkpt>
      <trkpt lat="43.64119" lon="5.52879">
        <ele>227</ele>
        <time>2021-10-14T12:11:19Z</time>
      </trkpt>
      <trkpt lat="43.641" lon="5.52778">
        <ele>229</ele>
        <time>2021-10-14T12:11:32Z</time>
      </trkpt>
      <trkpt lat="43.64064" lon="5.52594">
        <ele>228</ele>
        <time>2021-10-14T12:11:57Z</time>
      </trkpt>
      <trkpt lat="43.64063" lon="5.52545">
        <ele>229</ele>
        <time>2021-10-14T12:12:04Z</time>
      </trkpt>
      <trkpt lat="43.64044" lon="5.52546">
        <ele>229</ele>
        <time>2021-10-14T12:12:07Z</time>
      </trkpt>
      <trkpt lat="43.64029" lon="5.5258">
        <ele>228</ele>
        <time>2021-10-14T12:12:12Z</time>
      </trkpt>
      <trkpt lat="43.6402" lon="5.52588">
        <ele>228</ele>
        <time>2021-10-14T12:12:14Z</time>
      </trkpt>
      <trkpt lat="43.63945" lon="5.52586">
        <ele>230</ele>
        <time>2021-10-14T12:12:28Z</time>
      </trkpt>
      <trkpt lat="43.63895" lon="5.52592">
        <ele>232</ele>
        <time>2021-10-14T12:12:37Z</time>
      </trkpt>
      <trkpt lat="43.63741" lon="5.52647">
        <ele>234</ele>
        <time>2021-10-14T12:13:05Z</time>
      </trkpt>
      <trkpt lat="43.63649" lon="5.52592">
        <ele>235</ele>
        <time>2021-10-14T12:13:23Z</time>
      </trkpt>
      <trkpt lat="43.63637" lon="5.52575">
        <ele>236</ele>
        <time>2021-10-14T12:13:26Z</time>
      </trkpt>
      <trkpt lat="43.63648" lon="5.52518">
        <ele>243</ele>
        <time>2021-10-14T12:13:34Z</time>
      </trkpt>
      <trkpt lat="43.63643" lon="5.52503">
        <ele>246</ele>
        <time>2021-10-14T12:13:36Z</time>
      </trkpt>
      <trkpt lat="43.63516" lon="5.52509">
        <ele>253</ele>
        <time>2021-10-14T12:13:59Z</time>
      </trkpt>
      <trkpt lat="43.63414" lon="5.52517">
        <ele>246</ele>
        <time>2021-10-14T12:14:17Z</time>
      </trkpt>
      <trkpt lat="43.63382" lon="5.52397">
        <ele>255</ele>
        <time>2021-10-14T12:14:34Z</time>
      </trkpt>
      <trkpt lat="43.63373" lon="5.52326">
        <ele>256</ele>
        <time>2021-10-14T12:14:43Z</time>
      </trkpt>
      <trkpt lat="43.63339" lon="5.52265">
        <ele>248</ele>
        <time>2021-10-14T12:14:53Z</time>
      </trkpt>
      <trkpt lat="43.6333" lon="5.52175">
        <ele>252</ele>
        <time>2021-10-14T12:15:05Z</time>
      </trkpt>
      <trkpt lat="43.63318" lon="5.52141">
        <ele>252</ele>
        <time>2021-10-14T12:15:10Z</time>
      </trkpt>
      <trkpt lat="43.63304" lon="5.52131">
        <ele>251</ele>
        <time>2021-10-14T12:15:13Z</time>
      </trkpt>
      <trkpt lat="43.63294" lon="5.5214">
        <ele>250</ele>
        <time>2021-10-14T12:15:15Z</time>
      </trkpt>
      <trkpt lat="43.63264" lon="5.52189">
        <ele>249</ele>
        <time>2021-10-14T12:15:23Z</time>
      </trkpt>
      <trkpt lat="43.63192" lon="5.52074">
        <ele>246</ele>
        <time>2021-10-14T12:15:43Z</time>
      </trkpt>
      <trkpt lat="43.6317" lon="5.52054">
        <ele>247</ele>
        <time>2021-10-14T12:15:47Z</time>
      </trkpt>
      <trkpt lat="43.63151" lon="5.52056">
        <ele>247</ele>
        <time>2021-10-14T12:15:51Z</time>
      </trkpt>
      <trkpt lat="43.63087" lon="5.52099">
        <ele>250</ele>
        <time>2021-10-14T12:16:03Z</time>
      </trkpt>
      <trkpt lat="43.63034" lon="5.52164">
        <ele>251</ele>
        <time>2021-10-14T12:16:16Z</time>
      </trkpt>
      <trkpt lat="43.62996" lon="5.5227">
        <ele>249</ele>
        <time>2021-10-14T12:16:32Z</time>
      </trkpt>
      <trkpt lat="43.62969" lon="5.523">
        <ele>252</ele>
        <time>2021-10-14T12:16:38Z</time>
      </trkpt>
      <trkpt lat="43.62949" lon="5.523">
        <ele>252</ele>
        <time>2021-10-14T12:16:41Z</time>
      </trkpt>
      <trkpt lat="43.62856" lon="5.52223">
        <ele>259</ele>
        <time>2021-10-14T12:17:01Z</time>
      </trkpt>
      <trkpt lat="43.62833" lon="5.52147">
        <ele>253</ele>
        <time>2021-10-14T12:17:12Z</time>
      </trkpt>
      <trkpt lat="43.62821" lon="5.52138">
        <ele>254</ele>
        <time>2021-10-14T12:17:14Z</time>
      </trkpt>
      <trkpt lat="43.62743" lon="5.52132">
        <ele>258</ele>
        <time>2021-10-14T12:17:28Z</time>
      </trkpt>
      <trkpt lat="43.62692" lon="5.52103">
        <ele>255</ele>
        <time>2021-10-14T12:17:38Z</time>
      </trkpt>
      <trkpt lat="43.6267" lon="5.52107">
        <ele>256</ele>
        <time>2021-10-14T12:17:42Z</time>
      </trkpt>
      <trkpt lat="43.6265" lon="5.52103">
        <ele>257</ele>
        <time>2021-10-14T12:17:46Z</time>
      </trkpt>
      <trkpt lat="43.62514" lon="5.52009">
        <ele>260</ele>
        <time>2021-10-14T12:18:13Z</time>
      </trkpt>
      <trkpt lat="43.62457" lon="5.51979">
        <ele>259</ele>
        <time>2021-10-14T12:18:24Z</time>
      </trkpt>
      <trkpt lat="43.624" lon="5.51961">
        <ele>260</ele>
        <time>2021-10-14T12:18:34Z</time>
      </trkpt>
      <trkpt lat="43.62389" lon="5.51983">
        <ele>261</ele>
        <time>2021-10-14T12:18:38Z</time>
      </trkpt>
      <trkpt lat="43.62294" lon="5.51984">
        <ele>267</ele>
        <time>2021-10-14T12:18:55Z</time>
      </trkpt>
      <trkpt lat="43.62206" lon="5.52006">
        <ele>266</ele>
        <time>2021-10-14T12:19:11Z</time>
      </trkpt>
      <trkpt lat="43.62172" lon="5.52028">
        <ele>266</ele>
        <time>2021-10-14T12:19:17Z</time>
      </trkpt>
      <trkpt lat="43.62108" lon="5.52097">
        <ele>268</ele>
        <time>2021-10-14T12:19:32Z</time>
      </trkpt>
      <trkpt lat="43.62059" lon="5.52107">
        <ele>269</ele>
        <time>2021-10-14T12:19:41Z</time>
      </trkpt>
      <trkpt lat="43.61974" lon="5.52125">
        <ele>274</ele>
        <time>2021-10-14T12:19:56Z</time>
      </trkpt>
      <trkpt lat="43.61778" lon="5.52219">
        <ele>274</ele>
        <time>2021-10-14T12:20:33Z</time>
      </trkpt>
      <trkpt lat="43.61705" lon="5.5224">
        <ele>272</ele>
        <time>2021-10-14T12:20:46Z</time>
      </trkpt>
      <trkpt lat="43.61564" lon="5.52254">
        <ele>271</ele>
        <time>2021-10-14T12:21:11Z</time>
      </trkpt>
      <trkpt lat="43.61486" lon="5.52249">
        <ele>272</ele>
        <time>2021-10-14T12:21:25Z</time>
      </trkpt>
      <trkpt lat="43.6124" lon="5.52185">
        <ele>279</ele>
        <time>2021-10-14T12:22:10Z</time>
      </trkpt>
      <trkpt lat="43.61139" lon="5.52174">
        <ele>280</ele>
        <time>2021-10-14T12:22:28Z</time>
      </trkpt>
      <trkpt lat="43.61061" lon="5.52166">
        <ele>283</ele>
        <time>2021-10-14T12:22:42Z</time>
      </trkpt>
      <trkpt lat="43.60994" lon="5.52148">
        <ele>285</ele>
        <time>2021-10-14T12:22:55Z</time>
      </trkpt>
      <trkpt lat="43.60888" lon="5.52098">
        <ele>286</ele>
        <time>2021-10-14T12:23:15Z</time>
      </trkpt>
      <trkpt lat="43.60791" lon="5.52017">
        <ele>283</ele>
        <time>2021-10-14T12:23:35Z</time>
      </trkpt>
      <trkpt lat="43.60737" lon="5.51973">
        <ele>285</ele>
        <time>2021-10-14T12:23:46Z</time>
      </trkpt>
      <trkpt lat="43.60718" lon="5.51943">
        <ele>286</ele>
        <time>2021-10-14T12:23:51Z</time>
      </trkpt>
      <trkpt lat="43.60667" lon="5.519">
        <ele>287</ele>
        <time>2021-10-14T12:24:02Z</time>
      </trkpt>
      <trkpt lat="43.60608" lon="5.51849">
        <ele>290</ele>
        <time>2021-10-14T12:24:14Z</time>
      </trkpt>
      <trkpt lat="43.60548" lon="5.51782">
        <ele>292</ele>
        <time>2021-10-14T12:24:28Z</time>
      </trkpt>
      <trkpt lat="43.60478" lon="5.51693">
        <ele>293</ele>
        <time>2021-10-14T12:24:45Z</time>
      </trkpt>
      <trkpt lat="43.60348" lon="5.51607">
        <ele>293</ele>
        <time>2021-10-14T12:25:11Z</time>
      </trkpt>
      <trkpt lat="43.60278" lon="5.51618">
        <ele>293</ele>
        <time>2021-10-14T12:25:24Z</time>
      </trkpt>
      <trkpt lat="43.60238" lon="5.51631">
        <ele>293</ele>
        <time>2021-10-14T12:25:31Z</time>
      </trkpt>
      <trkpt lat="43.6018" lon="5.5164">
        <ele>292</ele>
        <time>2021-10-14T12:25:42Z</time>
      </trkpt>
      <trkpt lat="43.60079" lon="5.51701">
        <ele>293</ele>
        <time>2021-10-14T12:26:01Z</time>
      </trkpt>
      <trkpt lat="43.60025" lon="5.51711">
        <ele>295</ele>
        <time>2021-10-14T12:26:11Z</time>
      </trkpt>
      <trkpt lat="43.60003" lon="5.51723">
        <ele>295</ele>
        <time>2021-10-14T12:26:15Z</time>
      </trkpt>
      <trkpt lat="43.59972" lon="5.5178">
        <ele>295</ele>
        <time>2021-10-14T12:26:24Z</time>
      </trkpt>
      <trkpt lat="43.59939" lon="5.51822">
        <ele>295</ele>
        <time>2021-10-14T12:26:32Z</time>
      </trkpt>
      <trkpt lat="43.59856" lon="5.51854">
        <ele>297</ele>
        <time>2021-10-14T12:26:48Z</time>
      </trkpt>
      <trkpt lat="43.59757" lon="5.51861">
        <ele>301</ele>
        <time>2021-10-14T12:27:06Z</time>
      </trkpt>
      <trkpt lat="43.59687" lon="5.51857">
        <ele>304</ele>
        <time>2021-10-14T12:27:19Z</time>
      </trkpt>
      <trkpt lat="43.59555" lon="5.51746">
        <ele>309</ele>
        <time>2021-10-14T12:27:46Z</time>
      </trkpt>
      <trkpt lat="43.59505" lon="5.51719">
        <ele>309</ele>
        <time>2021-10-14T12:27:56Z</time>
      </trkpt>
      <trkpt lat="43.59435" lon="5.51666">
        <ele>311</ele>
        <time>2021-10-14T12:28:10Z</time>
      </trkpt>
      <trkpt lat="43.59337" lon="5.516">
        <ele>317</ele>
        <time>2021-10-14T12:28:30Z</time>
      </trkpt>
      <trkpt lat="43.59259" lon="5.51545">
        <ele>319</ele>
        <time>2021-10-14T12:28:45Z</time>
      </trkpt>
      <trkpt lat="43.59243" lon="5.51515">
        <ele>318</ele>
        <time>2021-10-14T12:28:50Z</time>
      </trkpt>
      <trkpt lat="43.5924" lon="5.51429">
        <ele>317</ele>
        <time>2021-10-14T12:29:01Z</time>
      </trkpt>
      <trkpt lat="43.59242" lon="5.51349">
        <ele>316</ele>
        <time>2021-10-14T12:29:12Z</time>
      </trkpt>
      <trkpt lat="43.59222" lon="5.5131">
        <ele>319</ele>
        <time>2021-10-14T12:29:18Z</time>
      </trkpt>
      <trkpt lat="43.59011" lon="5.51047">
        <ele>325</ele>
        <time>2021-10-14T12:30:08Z</time>
      </trkpt>
      <trkpt lat="43.58913" lon="5.5091">
        <ele>321</ele>
        <time>2021-10-14T12:30:34Z</time>
      </trkpt>
      <trkpt lat="43.58874" lon="5.50859">
        <ele>328</ele>
        <time>2021-10-14T12:30:43Z</time>
      </trkpt>
      <trkpt lat="43.58748" lon="5.50744">
        <ele>330</ele>
        <time>2021-10-14T12:31:10Z</time>
      </trkpt>
      <trkpt lat="43.58704" lon="5.50714">
        <ele>330</ele>
        <time>2021-10-14T12:31:19Z</time>
      </trkpt>
      <trkpt lat="43.58604" lon="5.50715">
        <ele>331</ele>
        <time>2021-10-14T12:31:37Z</time>
      </trkpt>
      <trkpt lat="43.58582" lon="5.50697">
        <ele>330</ele>
        <time>2021-10-14T12:31:41Z</time>
      </trkpt>
      <trkpt lat="43.58561" lon="5.50623">
        <ele>331</ele>
        <time>2021-10-14T12:31:52Z</time>
      </trkpt>
      <trkpt lat="43.58545" lon="5.50567">
        <ele>333</ele>
        <time>2021-10-14T12:31:59Z</time>
      </trkpt>
      <trkpt lat="43.58521" lon="5.50506">
        <ele>337</ele>
        <time>2021-10-14T12:32:08Z</time>
      </trkpt>
      <trkpt lat="43.58486" lon="5.50466">
        <ele>341</ele>
        <time>2021-10-14T12:32:17Z</time>
      </trkpt>
      <trkpt lat="43.5848" lon="5.50401">
        <ele>343</ele>
        <time>2021-10-14T12:32:25Z</time>
      </trkpt>
      <trkpt lat="43.58477" lon="5.50346">
        <ele>341</ele>
        <time>2021-10-14T12:32:32Z</time>
      </trkpt>
      <trkpt lat="43.58414" lon="5.50308">
        <ele>343</ele>
        <time>2021-10-14T12:32:45Z</time>
      </trkpt>
      <trkpt lat="43.5834" lon="5.50236">
        <ele>342</ele>
        <time>2021-10-14T12:33:01Z</time>
      </trkpt>
      <trkpt lat="43.58284" lon="5.50092">
        <ele>345</ele>
        <time>2021-10-14T12:33:22Z</time>
      </trkpt>
      <trkpt lat="43.58215" lon="5.49993">
        <ele>342</ele>
        <time>2021-10-14T12:33:40Z</time>
      </trkpt>
      <trkpt lat="43.58175" lon="5.49955">
        <ele>342</ele>
        <time>2021-10-14T12:33:48Z</time>
      </trkpt>
      <trkpt lat="43.58039" lon="5.49861">
        <ele>347</ele>
        <time>2021-10-14T12:34:16Z</time>
      </trkpt>
      <trkpt lat="43.57946" lon="5.49746">
        <ele>348</ele>
        <time>2021-10-14T12:34:38Z</time>
      </trkpt>
      <trkpt lat="43.57808" lon="5.49617">
        <ele>359</ele>
        <time>2021-10-14T12:35:07Z</time>
      </trkpt>
      <trkpt lat="43.57744" lon="5.49532">
        <ele>367</ele>
        <time>2021-10-14T12:35:23Z</time>
      </trkpt>
      <trkpt lat="43.57679" lon="5.49408">
        <ele>368</ele>
        <time>2021-10-14T12:35:43Z</time>
      </trkpt>
      <trkpt lat="43.57632" lon="5.49184">
        <ele>371</ele>
        <time>2021-10-14T12:36:13Z</time>
      </trkpt>
      <trkpt lat="43.57601" lon="5.49104">
        <ele>369</ele>
        <time>2021-10-14T12:36:25Z</time>
      </trkpt>
      <trkpt lat="43.57591" lon="5.48969">
        <ele>372</ele>
        <time>2021-10-14T12:36:42Z</time>
      </trkpt>
      <trkpt lat="43.57624" lon="5.48867">
        <ele>375</ele>
        <time>2021-10-14T12:36:57Z</time>
      </trkpt>
      <trkpt lat="43.57661" lon="5.48693">
        <ele>377</ele>
        <time>2021-10-14T12:37:20Z</time>
      </trkpt>
      <trkpt lat="43.57637" lon="5.48506">
        <ele>373</ele>
        <time>2021-10-14T12:37:45Z</time>
      </trkpt>
      <trkpt lat="43.57605" lon="5.4845">
        <ele>373</ele>
        <time>2021-10-14T12:37:54Z</time>
      </trkpt>
      <trkpt lat="43.57567" lon="5.48426">
        <ele>372</ele>
        <time>2021-10-14T12:38:02Z</time>
      </trkpt>
      <trkpt lat="43.57383" lon="5.4835">
        <ele>369</ele>
        <time>2021-10-14T12:38:36Z</time>
      </trkpt>
      <trkpt lat="43.5727" lon="5.48292">
        <ele>372</ele>
        <time>2021-10-14T12:38:57Z</time>
      </trkpt>
      <trkpt lat="43.57187" lon="5.48281">
        <ele>377</ele>
        <time>2021-10-14T12:39:12Z</time>
      </trkpt>
      <trkpt lat="43.57094" lon="5.48294">
        <ele>379</ele>
        <time>2021-10-14T12:39:29Z</time>
      </trkpt>
      <trkpt lat="43.5706" lon="5.48357">
        <ele>378</ele>
        <time>2021-10-14T12:39:39Z</time>
      </trkpt>
      <trkpt lat="43.57044" lon="5.48368">
        <ele>378</ele>
        <time>2021-10-14T12:39:42Z</time>
      </trkpt>
      <trkpt lat="43.56984" lon="5.48354">
        <ele>375</ele>
        <time>2021-10-14T12:39:53Z</time>
      </trkpt>
      <trkpt lat="43.5692" lon="5.48314">
        <ele>371</ele>
        <time>2021-10-14T12:40:06Z</time>
      </trkpt>
      <trkpt lat="43.56857" lon="5.48247">
        <ele>363</ele>
        <time>2021-10-14T12:40:20Z</time>
      </trkpt>
      <trkpt lat="43.56844" lon="5.48186">
        <ele>357</ele>
        <time>2021-10-14T12:40:28Z</time>
      </trkpt>
      <trkpt lat="43.5685" lon="5.48039">
        <ele>357</ele>
        <time>2021-10-14T12:40:47Z</time>
      </trkpt>
      <trkpt lat="43.56741" lon="5.47946">
        <ele>348</ele>
        <time>2021-10-14T12:41:11Z</time>
      </trkpt>
      <trkpt lat="43.56673" lon="5.4789">
        <ele>342</ele>
        <time>2021-10-14T12:41:25Z</time>
      </trkpt>
      <trkpt lat="43.56607" lon="5.47828">
        <ele>338</ele>
        <time>2021-10-14T12:41:39Z</time>
      </trkpt>
      <trkpt lat="43.56511" lon="5.47757">
        <ele>332</ele>
        <time>2021-10-14T12:41:58Z</time>
      </trkpt>
      <trkpt lat="43.5641" lon="5.4761">
        <ele>326</ele>
        <time>2021-10-14T12:42:24Z</time>
      </trkpt>
      <trkpt lat="43.56339" lon="5.47549">
        <ele>322</ele>
        <time>2021-10-14T12:42:39Z</time>
      </trkpt>
      <trkpt lat="43.56306" lon="5.47514">
        <ele>319</ele>
        <time>2021-10-14T12:42:47Z</time>
      </trkpt>
      <trkpt lat="43.56183" lon="5.47364">
        <ele>312</ele>
        <time>2021-10-14T12:43:16Z</time>
      </trkpt>
      <trkpt lat="43.56137" lon="5.47308">
        <ele>310</ele>
        <time>2021-10-14T12:43:27Z</time>
      </trkpt>
      <trkpt lat="43.56068" lon="5.47276">
        <ele>305</ele>
        <time>2021-10-14T12:43:40Z</time>
      </trkpt>
      <trkpt lat="43.55959" lon="5.47201">
        <ele>301</ele>
        <time>2021-10-14T12:44:02Z</time>
      </trkpt>
      <trkpt lat="43.55858" lon="5.47172">
        <ele>301</ele>
        <time>2021-10-14T12:44:20Z</time>
      </trkpt>
      <trkpt lat="43.55793" lon="5.47132">
        <ele>301</ele>
        <time>2021-10-14T12:44:33Z</time>
      </trkpt>
      <trkpt lat="43.55742" lon="5.47076">
        <ele>299</ele>
        <time>2021-10-14T12:44:45Z</time>
      </trkpt>
      <trkpt lat="43.55655" lon="5.47043">
        <ele>300</ele>
        <time>2021-10-14T12:45:01Z</time>
      </trkpt>
      <trkpt lat="43.55575" lon="5.46958">
        <ele>297</ele>
        <time>2021-10-14T12:45:19Z</time>
      </trkpt>
      <trkpt lat="43.55516" lon="5.46913">
        <ele>297</ele>
        <time>2021-10-14T12:45:31Z</time>
      </trkpt>
      <trkpt lat="43.55429" lon="5.46788">
        <ele>295</ele>
        <time>2021-10-14T12:45:53Z</time>
      </trkpt>
      <trkpt lat="43.55336" lon="5.46594">
        <ele>290</ele>
        <time>2021-10-14T12:46:23Z</time>
      </trkpt>
      <trkpt lat="43.55262" lon="5.46505">
        <ele>283</ele>
        <time>2021-10-14T12:46:41Z</time>
      </trkpt>
      <trkpt lat="43.55081" lon="5.46349">
        <ele>279</ele>
        <time>2021-10-14T12:47:19Z</time>
      </trkpt>
      <trkpt lat="43.5504" lon="5.46321">
        <ele>276</ele>
        <time>2021-10-14T12:47:27Z</time>
      </trkpt>
      <trkpt lat="43.54985" lon="5.46306">
        <ele>276</ele>
        <time>2021-10-14T12:47:37Z</time>
      </trkpt>
      <trkpt lat="43.54892" lon="5.46236">
        <ele>270</ele>
        <time>2021-10-14T12:47:56Z</time>
      </trkpt>
      <trkpt lat="43.54858" lon="5.46216">
        <ele>270</ele>
        <time>2021-10-14T12:48:03Z</time>
      </trkpt>
      <trkpt lat="43.54804" lon="5.46226">
        <ele>266</ele>
        <time>2021-10-14T12:48:12Z</time>
      </trkpt>
      <trkpt lat="43.54768" lon="5.46211">
        <ele>265</ele>
        <time>2021-10-14T12:48:19Z</time>
      </trkpt>
      <trkpt lat="43.54717" lon="5.46142">
        <ele>262</ele>
        <time>2021-10-14T12:48:32Z</time>
      </trkpt>
      <trkpt lat="43.5468" lon="5.46115">
        <ele>264</ele>
        <time>2021-10-14T12:48:39Z</time>
      </trkpt>
      <trkpt lat="43.54628" lon="5.46097">
        <ele>264</ele>
        <time>2021-10-14T12:48:49Z</time>
      </trkpt>
      <trkpt lat="43.54482" lon="5.46122">
        <ele>260</ele>
        <time>2021-10-14T12:49:15Z</time>
      </trkpt>
      <trkpt lat="43.54399" lon="5.46139">
        <ele>253</ele>
        <time>2021-10-14T12:49:30Z</time>
      </trkpt>
      <trkpt lat="43.54368" lon="5.46129">
        <ele>251</ele>
        <time>2021-10-14T12:49:36Z</time>
      </trkpt>
      <trkpt lat="43.54135" lon="5.45941">
        <ele>238</ele>
        <time>2021-10-14T12:50:24Z</time>
      </trkpt>
      <trkpt lat="43.54083" lon="5.45898">
        <ele>235</ele>
        <time>2021-10-14T12:50:34Z</time>
      </trkpt>
      <trkpt lat="43.54008" lon="5.45787">
        <ele>232</ele>
        <time>2021-10-14T12:50:54Z</time>
      </trkpt>
      <trkpt lat="43.53906" lon="5.45696">
        <ele>235</ele>
        <time>2021-10-14T12:51:16Z</time>
      </trkpt>
      <trkpt lat="43.53877" lon="5.45694">
        <ele>236</ele>
        <time>2021-10-14T12:51:21Z</time>
      </trkpt>
      <trkpt lat="43.53632" lon="5.45753">
        <ele>227</ele>
        <time>2021-10-14T12:52:05Z</time>
      </trkpt>
      <trkpt lat="43.53617" lon="5.45758">
        <ele>226.9</ele>
        <time>2021-10-14T12:52:08Z</time>
      </trkpt>
      <trkpt lat="43.53581" lon="5.45716">
        <ele>232</ele>
        <time>2021-10-14T12:52:15Z</time>
      </trkpt>
      <trkpt lat="43.53528" lon="5.45673">
        <ele>231.6</ele>
      </trkpt>
      <trkpt lat="43.53496" lon="5.4562">
        <ele>229</ele>
        <time>2021-10-14T12:52:35Z</time>
      </trkpt>
      <trkpt lat="43.53461" lon="5.45569">
        <ele>225</ele>
        <time>2021-10-14T12:52:44Z</time>
      </trkpt>
      <trkpt lat="43.53426" lon="5.45556">
        <ele>220</ele>
        <time>2021-10-14T12:52:51Z</time>
      </trkpt>
      <trkpt lat="43.53373" lon="5.45558">
        <ele>216</ele>
        <time>2021-10-14T12:53:00Z</time>
      </trkpt>
      <trkpt lat="43.533" lon="5.45548">
        <ele>211.7</ele>
        <time>2021-10-14T12:53:10Z</time>
      </trkpt>
      <trkpt lat="43.53296" lon="5.4553">
        <ele>211.4</ele>
        <time>2021-10-14T12:53:15Z</time>
      </trkpt>
      <trkpt lat="43.5327" lon="5.45404">
        <ele>212</ele>
        <time>2021-10-14T12:53:31Z</time>
      </trkpt>
      <trkpt lat="43.53228" lon="5.45173">
        <ele>212</ele>
        <time>2021-10-14T12:54:01Z</time>
      </trkpt>
      <trkpt lat="43.53236" lon="5.45102">
        <ele>212</ele>
        <time>2021-10-14T12:54:11Z</time>
      </trkpt>
      <trkpt lat="43.53251" lon="5.44996">
        <ele>212</ele>
        <time>2021-10-14T12:54:25Z</time>
      </trkpt>
      <trkpt lat="43.53259" lon="5.44918">
        <ele>210</ele>
        <time>2021-10-14T12:54:35Z</time>
      </trkpt>
      <trkpt lat="43.53279" lon="5.44701">
        <ele>215</ele>
        <time>2021-10-14T12:55:03Z</time>
      </trkpt>
      <trkpt lat="43.53252" lon="5.44607">
        <ele>214</ele>
        <time>2021-10-14T12:55:16Z</time>
      </trkpt>
      <trkpt lat="43.53225" lon="5.44549">
        <ele>210</ele>
        <time>2021-10-14T12:55:25Z</time>
      </trkpt>
      <trkpt lat="43.53199" lon="5.4448">
        <ele>205</ele>
        <time>2021-10-14T12:55:35Z</time>
      </trkpt>
      <trkpt lat="43.53202" lon="5.44462">
        <ele>205</ele>
        <time>2021-10-14T12:55:38Z</time>
      </trkpt>
      <trkpt lat="43.5329" lon="5.44391">
        <ele>205</ele>
        <time>2021-10-14T12:55:56Z</time>
      </trkpt>
      <trkpt lat="43.53294" lon="5.44376">
        <ele>204</ele>
        <time>2021-10-14T12:55:58Z</time>
      </trkpt>
      <trkpt lat="43.53288" lon="5.44332">
        <ele>203</ele>
        <time>2021-10-14T12:56:04Z</time>
      </trkpt>
      <trkpt lat="43.53374" lon="5.44275">
        <ele>206</ele>
        <time>2021-10-14T12:56:21Z</time>
      </trkpt>
      <trkpt lat="43.53364" lon="5.44217">
        <ele>204</ele>
        <time>2021-10-14T12:56:30Z</time>
      </trkpt>
      <trkpt lat="43.53299" lon="5.43971">
        <ele>199</ele>
        <time>2021-10-14T12:57:03Z</time>
      </trkpt>
      <trkpt lat="43.53235" lon="5.43767">
        <ele>200</ele>
        <time>2021-10-14T12:57:32Z</time>
      </trkpt>
      <trkpt lat="43.53165" lon="5.43594">
        <ele>200</ele>
        <time>2021-10-14T12:57:58Z</time>
      </trkpt>
      <trkpt lat="43.53145" lon="5.43539">
        <ele>199</ele>
        <time>2021-10-14T12:58:06Z</time>
      </trkpt>
      <trkpt lat="43.53143" lon="5.43482">
        <ele>198</ele>
        <time>2021-10-14T12:58:13Z</time>
      </trkpt>
      <trkpt lat="43.53135" lon="5.43318">
        <ele>193</ele>
        <time>2021-10-14T12:58:35Z</time>
      </trkpt>
      <trkpt lat="43.53138" lon="5.43254">
        <ele>190</ele>
        <time>2021-10-14T12:58:43Z</time>
      </trkpt>
      <trkpt lat="43.53167" lon="5.43123">
        <ele>189</ele>
        <time>2021-10-14T12:59:01Z</time>
      </trkpt>
      <trkpt lat="43.53251" lon="5.42865">
        <ele>189</ele>
        <time>2021-10-14T12:59:37Z</time>
      </trkpt>
      <trkpt lat="43.53285" lon="5.42743">
        <ele>190</ele>
        <time>2021-10-14T12:59:54Z</time>
      </trkpt>
      <trkpt lat="43.53221" lon="5.42502">
        <ele>183</ele>
        <time>2021-10-14T13:00:27Z</time>
      </trkpt>
      <trkpt lat="43.53208" lon="5.42415">
        <ele>182</ele>
        <time>2021-10-14T13:00:39Z</time>
      </trkpt>
      <trkpt lat="43.53208" lon="5.42098">
        <ele>183</ele>
        <time>2021-10-14T13:01:20Z</time>
      </trkpt>
      <trkpt lat="43.53214" lon="5.42026">
        <ele>181</ele>
        <time>2021-10-14T13:01:29Z</time>
      </trkpt>
      <trkpt lat="43.53224" lon="5.41841">
        <ele>180</ele>
        <time>2021-10-14T13:01:53Z</time>
      </trkpt>
      <trkpt lat="43.53239" lon="5.41809">
        <ele>181</ele>
        <time>2021-10-14T13:01:58Z</time>
      </trkpt>
      <trkpt lat="43.53232" lon="5.41779">
        <ele>180</ele>
        <time>2021-10-14T13:02:02Z</time>
      </trkpt>
      <trkpt lat="43.5324" lon="5.41722">
        <ele>180</ele>
        <time>2021-10-14T13:02:10Z</time>
      </trkpt>
      <trkpt lat="43.53265" lon="5.41688">
        <ele>180</ele>
        <time>2021-10-14T13:02:16Z</time>
      </trkpt>
      <trkpt lat="43.53292" lon="5.41677">
        <ele>180</ele>
        <time>2021-10-14T13:02:21Z</time>
      </trkpt>
      <trkpt lat="43.53379" lon="5.41597">
        <ele>183</ele>
        <time>2021-10-14T13:02:40Z</time>
      </trkpt>
      <trkpt lat="43.53392" lon="5.41603">
        <ele>183</ele>
        <time>2021-10-14T13:02:42Z</time>
      </trkpt>
      <trkpt lat="43.53441" lon="5.41672">
        <ele>182</ele>
        <time>2021-10-14T13:02:55Z</time>
      </trkpt>
      <trkpt lat="43.53457" lon="5.41716">
        <ele>183</ele>
        <time>2021-10-14T13:03:02Z</time>
      </trkpt>
      <trkpt lat="43.53474" lon="5.41716">
        <ele>184</ele>
        <time>2021-10-14T13:03:05Z</time>
      </trkpt>
      <trkpt lat="43.53495" lon="5.41729">
        <ele>185</ele>
        <time>2021-10-14T13:03:09Z</time>
      </trkpt>
      <trkpt lat="43.53529" lon="5.41711">
        <ele>187</ele>
        <time>2021-10-14T13:03:16Z</time>
      </trkpt>
    </trkseg>
  </trk>
</gpx>